<?xml version="1.0" encoding="UTF-8" standalone="no" ?>
<gpx xmlns="http://www.topografix.com/GPX/1/1" xmlns:xsi="http://www.w3.org/2001/XMLSchema-instance" xsi:schemaLocation="http://www.topografix.com/GPX/1/1 http://www.topografix.com/GPX/1/1/gpx.xsd" version="1.1" creator="VisuGPX - https://www.visugpx.com">
  <metadata>
    <name>Rando dans les ocres</name>
    <desc><![CDATA[Joli parcours dans les ocres de Villars ]]></desc>
  </metadata>
  <trk>
    <name><![CDATA[VILLARD OCRES BON]]></name>
    <trkseg>
      <trkpt lat="43.9293" lon="5.41189">
        <ele>299.59</ele>
        <time>2015-06-15T12:30:48Z</time>
      </trkpt>
      <trkpt lat="43.92922" lon="5.41191">
        <ele>299.59</ele>
        <time>2015-06-15T12:31:11Z</time>
      </trkpt>
      <trkpt lat="43.92886" lon="5.41178">
        <ele>300.55</ele>
        <time>2015-06-15T12:31:22Z</time>
      </trkpt>
      <trkpt lat="43.92847" lon="5.41161">
        <ele>304.39</ele>
        <time>2015-06-15T12:31:33Z</time>
      </trkpt>
      <trkpt lat="43.92843" lon="5.41159">
        <ele>304.39</ele>
        <time>2015-06-15T12:31:34Z</time>
      </trkpt>
      <trkpt lat="43.92798" lon="5.41134">
        <ele>306.8</ele>
        <time>2015-06-15T12:31:48Z</time>
      </trkpt>
      <trkpt lat="43.92792" lon="5.41135">
        <ele>305.36</ele>
        <time>2015-06-15T12:31:51Z</time>
      </trkpt>
      <trkpt lat="43.9279" lon="5.41137">
        <ele>305.36</ele>
        <time>2015-06-15T12:31:52Z</time>
      </trkpt>
      <trkpt lat="43.92788" lon="5.41139">
        <ele>305.84</ele>
        <time>2015-06-15T12:31:53Z</time>
      </trkpt>
      <trkpt lat="43.92784" lon="5.41137">
        <ele>305.36</ele>
        <time>2015-06-15T12:31:54Z</time>
      </trkpt>
      <trkpt lat="43.92781" lon="5.41134">
        <ele>305.36</ele>
        <time>2015-06-15T12:31:55Z</time>
      </trkpt>
      <trkpt lat="43.92717" lon="5.41074">
        <ele>306.8</ele>
        <time>2015-06-15T12:32:10Z</time>
      </trkpt>
      <trkpt lat="43.92703" lon="5.4106">
        <ele>306.32</ele>
        <time>2015-06-15T12:32:13Z</time>
      </trkpt>
      <trkpt lat="43.92698" lon="5.41056">
        <ele>305.84</ele>
        <time>2015-06-15T12:32:14Z</time>
      </trkpt>
      <trkpt lat="43.92693" lon="5.41051">
        <ele>305.84</ele>
        <time>2015-06-15T12:32:15Z</time>
      </trkpt>
      <trkpt lat="43.92672" lon="5.41029">
        <ele>305.36</ele>
        <time>2015-06-15T12:32:20Z</time>
      </trkpt>
      <trkpt lat="43.92668" lon="5.4103">
        <ele>304.88</ele>
        <time>2015-06-15T12:32:21Z</time>
      </trkpt>
      <trkpt lat="43.92664" lon="5.41034">
        <ele>304.88</ele>
        <time>2015-06-15T12:32:22Z</time>
      </trkpt>
      <trkpt lat="43.92661" lon="5.4104">
        <ele>304.39</ele>
        <time>2015-06-15T12:32:23Z</time>
      </trkpt>
      <trkpt lat="43.92659" lon="5.41047">
        <ele>303.91</ele>
        <time>2015-06-15T12:32:24Z</time>
      </trkpt>
      <trkpt lat="43.92625" lon="5.41141">
        <ele>301.51</ele>
        <time>2015-06-15T12:32:37Z</time>
      </trkpt>
      <trkpt lat="43.92592" lon="5.4124">
        <ele>297.18</ele>
        <time>2015-06-15T12:32:49Z</time>
      </trkpt>
      <trkpt lat="43.92587" lon="5.41258">
        <ele>296.22</ele>
        <time>2015-06-15T12:32:51Z</time>
      </trkpt>
      <trkpt lat="43.92576" lon="5.41286">
        <ele>295.74</ele>
        <time>2015-06-15T12:32:55Z</time>
      </trkpt>
      <trkpt lat="43.9257" lon="5.41306">
        <ele>295.74</ele>
        <time>2015-06-15T12:32:58Z</time>
      </trkpt>
      <trkpt lat="43.92567" lon="5.41312">
        <ele>295.74</ele>
        <time>2015-06-15T12:32:59Z</time>
      </trkpt>
      <trkpt lat="43.9253" lon="5.41378">
        <ele>297.67</ele>
        <time>2015-06-15T12:33:11Z</time>
      </trkpt>
      <trkpt lat="43.92494" lon="5.41433">
        <ele>298.63</ele>
        <time>2015-06-15T12:33:24Z</time>
      </trkpt>
      <trkpt lat="43.92493" lon="5.41435">
        <ele>298.63</ele>
        <time>2015-06-15T12:33:26Z</time>
      </trkpt>
      <trkpt lat="43.92491" lon="5.41436">
        <ele>298.63</ele>
        <time>2015-06-15T12:33:27Z</time>
      </trkpt>
      <trkpt lat="43.9249" lon="5.41435">
        <ele>298.63</ele>
        <time>2015-06-15T12:33:28Z</time>
      </trkpt>
      <trkpt lat="43.92489" lon="5.41434">
        <ele>298.63</ele>
        <time>2015-06-15T12:33:29Z</time>
      </trkpt>
      <trkpt lat="43.92487" lon="5.41432">
        <ele>298.63</ele>
        <time>2015-06-15T12:33:30Z</time>
      </trkpt>
      <trkpt lat="43.92486" lon="5.4143">
        <ele>298.63</ele>
        <time>2015-06-15T12:33:31Z</time>
      </trkpt>
      <trkpt lat="43.92484" lon="5.41429">
        <ele>298.15</ele>
        <time>2015-06-15T12:33:32Z</time>
      </trkpt>
      <trkpt lat="43.92482" lon="5.41428">
        <ele>298.15</ele>
        <time>2015-06-15T12:33:33Z</time>
      </trkpt>
      <trkpt lat="43.92479" lon="5.41428">
        <ele>298.15</ele>
        <time>2015-06-15T12:33:34Z</time>
      </trkpt>
      <trkpt lat="43.92475" lon="5.41428">
        <ele>297.67</ele>
        <time>2015-06-15T12:33:35Z</time>
      </trkpt>
      <trkpt lat="43.9247" lon="5.41428">
        <ele>297.67</ele>
        <time>2015-06-15T12:33:36Z</time>
      </trkpt>
      <trkpt lat="43.92457" lon="5.4143">
        <ele>297.18</ele>
        <time>2015-06-15T12:33:39Z</time>
      </trkpt>
      <trkpt lat="43.92452" lon="5.41431">
        <ele>296.7</ele>
        <time>2015-06-15T12:33:40Z</time>
      </trkpt>
      <trkpt lat="43.92422" lon="5.41433">
        <ele>296.22</ele>
        <time>2015-06-15T12:33:47Z</time>
      </trkpt>
      <trkpt lat="43.92417" lon="5.41434">
        <ele>296.22</ele>
        <time>2015-06-15T12:33:48Z</time>
      </trkpt>
      <trkpt lat="43.92399" lon="5.41439">
        <ele>297.18</ele>
        <time>2015-06-15T12:33:52Z</time>
      </trkpt>
      <trkpt lat="43.92395" lon="5.41441">
        <ele>297.18</ele>
        <time>2015-06-15T12:33:53Z</time>
      </trkpt>
      <trkpt lat="43.92392" lon="5.41444">
        <ele>297.18</ele>
        <time>2015-06-15T12:33:54Z</time>
      </trkpt>
      <trkpt lat="43.92385" lon="5.4145">
        <ele>297.18</ele>
        <time>2015-06-15T12:33:56Z</time>
      </trkpt>
      <trkpt lat="43.92338" lon="5.41508">
        <ele>298.63</ele>
        <time>2015-06-15T12:34:11Z</time>
      </trkpt>
      <trkpt lat="43.9232" lon="5.4153">
        <ele>299.59</ele>
        <time>2015-06-15T12:34:17Z</time>
      </trkpt>
      <trkpt lat="43.92319" lon="5.41534">
        <ele>299.11</ele>
        <time>2015-06-15T12:34:18Z</time>
      </trkpt>
      <trkpt lat="43.92319" lon="5.41539">
        <ele>299.11</ele>
        <time>2015-06-15T12:34:19Z</time>
      </trkpt>
      <trkpt lat="43.92331" lon="5.41613">
        <ele>301.99</ele>
        <time>2015-06-15T12:34:33Z</time>
      </trkpt>
      <trkpt lat="43.92345" lon="5.41676">
        <ele>306.32</ele>
        <time>2015-06-15T12:34:47Z</time>
      </trkpt>
      <trkpt lat="43.92361" lon="5.41734">
        <ele>308.24</ele>
        <time>2015-06-15T12:35:01Z</time>
      </trkpt>
      <trkpt lat="43.92373" lon="5.41794">
        <ele>309.68</ele>
        <time>2015-06-15T12:35:13Z</time>
      </trkpt>
      <trkpt lat="43.9237" lon="5.41798">
        <ele>309.68</ele>
        <time>2015-06-15T12:35:14Z</time>
      </trkpt>
      <trkpt lat="43.92366" lon="5.418">
        <ele>309.2</ele>
        <time>2015-06-15T12:35:15Z</time>
      </trkpt>
      <trkpt lat="43.92362" lon="5.41802">
        <ele>308.72</ele>
        <time>2015-06-15T12:35:16Z</time>
      </trkpt>
      <trkpt lat="43.92358" lon="5.41805">
        <ele>308.24</ele>
        <time>2015-06-15T12:35:17Z</time>
      </trkpt>
      <trkpt lat="43.92328" lon="5.41826">
        <ele>305.84</ele>
        <time>2015-06-15T12:35:22Z</time>
      </trkpt>
      <trkpt lat="43.92317" lon="5.41835">
        <ele>304.88</ele>
        <time>2015-06-15T12:35:24Z</time>
      </trkpt>
      <trkpt lat="43.92301" lon="5.41858">
        <ele>302.95</ele>
        <time>2015-06-15T12:35:32Z</time>
      </trkpt>
      <trkpt lat="43.92281" lon="5.41877">
        <ele>301.99</ele>
        <time>2015-06-15T12:35:43Z</time>
      </trkpt>
      <trkpt lat="43.92258" lon="5.41892">
        <ele>301.99</ele>
        <time>2015-06-15T12:35:54Z</time>
      </trkpt>
      <trkpt lat="43.92255" lon="5.41894">
        <ele>301.99</ele>
        <time>2015-06-15T12:35:56Z</time>
      </trkpt>
      <trkpt lat="43.92254" lon="5.41896">
        <ele>302.47</ele>
        <time>2015-06-15T12:35:57Z</time>
      </trkpt>
      <trkpt lat="43.92253" lon="5.41899">
        <ele>302.47</ele>
        <time>2015-06-15T12:35:58Z</time>
      </trkpt>
      <trkpt lat="43.9225" lon="5.41906">
        <ele>303.91</ele>
        <time>2015-06-15T12:36:01Z</time>
      </trkpt>
      <trkpt lat="43.92226" lon="5.41939">
        <ele>308.24</ele>
        <time>2015-06-15T12:36:15Z</time>
      </trkpt>
      <trkpt lat="43.9221" lon="5.41951">
        <ele>312.09</ele>
        <time>2015-06-15T12:36:25Z</time>
      </trkpt>
      <trkpt lat="43.92208" lon="5.4195">
        <ele>312.57</ele>
        <time>2015-06-15T12:36:26Z</time>
      </trkpt>
      <trkpt lat="43.92205" lon="5.41949">
        <ele>313.53</ele>
        <time>2015-06-15T12:36:27Z</time>
      </trkpt>
      <trkpt lat="43.92204" lon="5.41948">
        <ele>314.01</ele>
        <time>2015-06-15T12:36:28Z</time>
      </trkpt>
      <trkpt lat="43.92202" lon="5.41946">
        <ele>314.49</ele>
        <time>2015-06-15T12:36:29Z</time>
      </trkpt>
      <trkpt lat="43.922" lon="5.41945">
        <ele>314.97</ele>
        <time>2015-06-15T12:36:30Z</time>
      </trkpt>
      <trkpt lat="43.92199" lon="5.41943">
        <ele>315.45</ele>
        <time>2015-06-15T12:36:31Z</time>
      </trkpt>
      <trkpt lat="43.92197" lon="5.41942">
        <ele>315.93</ele>
        <time>2015-06-15T12:36:32Z</time>
      </trkpt>
      <trkpt lat="43.92195" lon="5.41942">
        <ele>316.41</ele>
        <time>2015-06-15T12:36:33Z</time>
      </trkpt>
      <trkpt lat="43.92194" lon="5.41941">
        <ele>316.89</ele>
        <time>2015-06-15T12:36:34Z</time>
      </trkpt>
      <trkpt lat="43.92185" lon="5.41942">
        <ele>320.26</ele>
        <time>2015-06-15T12:36:42Z</time>
      </trkpt>
      <trkpt lat="43.92183" lon="5.41944">
        <ele>320.26</ele>
        <time>2015-06-15T12:36:43Z</time>
      </trkpt>
      <trkpt lat="43.92181" lon="5.41945">
        <ele>321.22</ele>
        <time>2015-06-15T12:36:44Z</time>
      </trkpt>
      <trkpt lat="43.92179" lon="5.41945">
        <ele>321.7</ele>
        <time>2015-06-15T12:36:45Z</time>
      </trkpt>
      <trkpt lat="43.92178" lon="5.41947">
        <ele>322.18</ele>
        <time>2015-06-15T12:36:46Z</time>
      </trkpt>
      <trkpt lat="43.92176" lon="5.41948">
        <ele>322.18</ele>
        <time>2015-06-15T12:36:47Z</time>
      </trkpt>
      <trkpt lat="43.92174" lon="5.41949">
        <ele>322.18</ele>
        <time>2015-06-15T12:36:48Z</time>
      </trkpt>
      <trkpt lat="43.92172" lon="5.41951">
        <ele>322.18</ele>
        <time>2015-06-15T12:36:49Z</time>
      </trkpt>
      <trkpt lat="43.92171" lon="5.41952">
        <ele>322.66</ele>
        <time>2015-06-15T12:36:50Z</time>
      </trkpt>
      <trkpt lat="43.92169" lon="5.41954">
        <ele>322.66</ele>
        <time>2015-06-15T12:36:51Z</time>
      </trkpt>
      <trkpt lat="43.92147" lon="5.41969">
        <ele>325.06</ele>
        <time>2015-06-15T12:37:04Z</time>
      </trkpt>
      <trkpt lat="43.92137" lon="5.41973">
        <ele>327.47</ele>
        <time>2015-06-15T12:37:10Z</time>
      </trkpt>
      <trkpt lat="43.92128" lon="5.41982">
        <ele>329.39</ele>
        <time>2015-06-15T12:37:17Z</time>
      </trkpt>
      <trkpt lat="43.92127" lon="5.41984">
        <ele>329.87</ele>
        <time>2015-06-15T12:37:18Z</time>
      </trkpt>
      <trkpt lat="43.92127" lon="5.41986">
        <ele>329.87</ele>
        <time>2015-06-15T12:37:19Z</time>
      </trkpt>
      <trkpt lat="43.92115" lon="5.4201">
        <ele>329.39</ele>
        <time>2015-06-15T12:37:33Z</time>
      </trkpt>
      <trkpt lat="43.92111" lon="5.42024">
        <ele>330.35</ele>
        <time>2015-06-15T12:37:40Z</time>
      </trkpt>
      <trkpt lat="43.92096" lon="5.42056">
        <ele>332.75</ele>
        <time>2015-06-15T12:37:52Z</time>
      </trkpt>
      <trkpt lat="43.92087" lon="5.42071">
        <ele>334.68</ele>
        <time>2015-06-15T12:37:59Z</time>
      </trkpt>
      <trkpt lat="43.92087" lon="5.42074">
        <ele>335.16</ele>
        <time>2015-06-15T12:38:00Z</time>
      </trkpt>
      <trkpt lat="43.92086" lon="5.42077">
        <ele>335.16</ele>
        <time>2015-06-15T12:38:01Z</time>
      </trkpt>
      <trkpt lat="43.92086" lon="5.42078">
        <ele>335.64</ele>
        <time>2015-06-15T12:38:02Z</time>
      </trkpt>
      <trkpt lat="43.92085" lon="5.42081">
        <ele>335.64</ele>
        <time>2015-06-15T12:38:03Z</time>
      </trkpt>
      <trkpt lat="43.92081" lon="5.4209">
        <ele>336.6</ele>
        <time>2015-06-15T12:38:07Z</time>
      </trkpt>
      <trkpt lat="43.92079" lon="5.42097">
        <ele>336.6</ele>
        <time>2015-06-15T12:38:11Z</time>
      </trkpt>
      <trkpt lat="43.92075" lon="5.42114">
        <ele>338.04</ele>
        <time>2015-06-15T12:38:18Z</time>
      </trkpt>
      <trkpt lat="43.92074" lon="5.42126">
        <ele>340.92</ele>
        <time>2015-06-15T12:38:23Z</time>
      </trkpt>
      <trkpt lat="43.92078" lon="5.42137">
        <ele>343.81</ele>
        <time>2015-06-15T12:38:30Z</time>
      </trkpt>
      <trkpt lat="43.92083" lon="5.42162">
        <ele>348.13</ele>
        <time>2015-06-15T12:38:41Z</time>
      </trkpt>
      <trkpt lat="43.92084" lon="5.42168">
        <ele>349.1</ele>
        <time>2015-06-15T12:38:43Z</time>
      </trkpt>
      <trkpt lat="43.9209" lon="5.42184">
        <ele>352.46</ele>
        <time>2015-06-15T12:38:54Z</time>
      </trkpt>
      <trkpt lat="43.92093" lon="5.42195">
        <ele>354.86</ele>
        <time>2015-06-15T12:38:59Z</time>
      </trkpt>
      <trkpt lat="43.92099" lon="5.422">
        <ele>357.75</ele>
        <time>2015-06-15T12:39:03Z</time>
      </trkpt>
      <trkpt lat="43.92101" lon="5.42211">
        <ele>361.59</ele>
        <time>2015-06-15T12:39:08Z</time>
      </trkpt>
      <trkpt lat="43.92101" lon="5.4223">
        <ele>362.55</ele>
        <time>2015-06-15T12:39:16Z</time>
      </trkpt>
      <trkpt lat="43.92097" lon="5.42257">
        <ele>359.19</ele>
        <time>2015-06-15T12:39:23Z</time>
      </trkpt>
      <trkpt lat="43.92089" lon="5.42264">
        <ele>358.71</ele>
        <time>2015-06-15T12:39:29Z</time>
      </trkpt>
      <trkpt lat="43.92084" lon="5.42266">
        <ele>358.23</ele>
        <time>2015-06-15T12:39:32Z</time>
      </trkpt>
      <trkpt lat="43.92071" lon="5.42283">
        <ele>358.71</ele>
        <time>2015-06-15T12:39:45Z</time>
      </trkpt>
      <trkpt lat="43.9207" lon="5.42285">
        <ele>358.71</ele>
        <time>2015-06-15T12:39:46Z</time>
      </trkpt>
      <trkpt lat="43.92064" lon="5.42301">
        <ele>358.23</ele>
        <time>2015-06-15T12:39:52Z</time>
      </trkpt>
      <trkpt lat="43.9206" lon="5.42326">
        <ele>358.23</ele>
        <time>2015-06-15T12:40:03Z</time>
      </trkpt>
      <trkpt lat="43.92074" lon="5.42336">
        <ele>359.19</ele>
        <time>2015-06-15T12:40:12Z</time>
      </trkpt>
      <trkpt lat="43.92077" lon="5.42338">
        <ele>359.67</ele>
        <time>2015-06-15T12:40:14Z</time>
      </trkpt>
      <trkpt lat="43.92083" lon="5.42344">
        <ele>361.59</ele>
        <time>2015-06-15T12:40:18Z</time>
      </trkpt>
      <trkpt lat="43.92085" lon="5.42354">
        <ele>364.48</ele>
        <time>2015-06-15T12:40:22Z</time>
      </trkpt>
      <trkpt lat="43.92087" lon="5.42362">
        <ele>365.44</ele>
        <time>2015-06-15T12:40:25Z</time>
      </trkpt>
      <trkpt lat="43.92089" lon="5.42377">
        <ele>366.4</ele>
        <time>2015-06-15T12:40:31Z</time>
      </trkpt>
      <trkpt lat="43.92085" lon="5.42396">
        <ele>365.92</ele>
        <time>2015-06-15T12:40:39Z</time>
      </trkpt>
      <trkpt lat="43.92081" lon="5.42404">
        <ele>366.4</ele>
        <time>2015-06-15T12:40:43Z</time>
      </trkpt>
      <trkpt lat="43.92059" lon="5.42432">
        <ele>364</ele>
        <time>2015-06-15T12:40:53Z</time>
      </trkpt>
      <trkpt lat="43.92058" lon="5.42462">
        <ele>364</ele>
        <time>2015-06-15T12:41:01Z</time>
      </trkpt>
      <trkpt lat="43.92053" lon="5.42492">
        <ele>362.07</ele>
        <time>2015-06-15T12:41:12Z</time>
      </trkpt>
      <trkpt lat="43.92053" lon="5.42495">
        <ele>362.07</ele>
        <time>2015-06-15T12:41:13Z</time>
      </trkpt>
      <trkpt lat="43.92048" lon="5.42506">
        <ele>360.15</ele>
        <time>2015-06-15T12:41:22Z</time>
      </trkpt>
      <trkpt lat="43.92043" lon="5.42514">
        <ele>359.67</ele>
        <time>2015-06-15T12:41:32Z</time>
      </trkpt>
      <trkpt lat="43.92041" lon="5.42514">
        <ele>360.63</ele>
        <time>2015-06-15T12:41:35Z</time>
      </trkpt>
      <trkpt lat="43.92038" lon="5.42508">
        <ele>361.59</ele>
        <time>2015-06-15T12:41:40Z</time>
      </trkpt>
      <trkpt lat="43.92035" lon="5.42502">
        <ele>367.36</ele>
        <time>2015-06-15T12:41:50Z</time>
      </trkpt>
      <trkpt lat="43.92036" lon="5.425">
        <ele>369.28</ele>
        <time>2015-06-15T12:41:53Z</time>
      </trkpt>
      <trkpt lat="43.92036" lon="5.4249">
        <ele>370.24</ele>
        <time>2015-06-15T12:42:03Z</time>
      </trkpt>
      <trkpt lat="43.92034" lon="5.42487">
        <ele>371.21</ele>
        <time>2015-06-15T12:42:08Z</time>
      </trkpt>
      <trkpt lat="43.92033" lon="5.42482">
        <ele>375.53</ele>
        <time>2015-06-15T12:42:21Z</time>
      </trkpt>
      <trkpt lat="43.9203" lon="5.42485">
        <ele>377.94</ele>
        <time>2015-06-15T12:42:33Z</time>
      </trkpt>
      <trkpt lat="43.9203" lon="5.42481">
        <ele>376.97</ele>
        <time>2015-06-15T12:42:35Z</time>
      </trkpt>
      <trkpt lat="43.92027" lon="5.42485">
        <ele>377.45</ele>
        <time>2015-06-15T12:42:39Z</time>
      </trkpt>
      <trkpt lat="43.9202" lon="5.42494">
        <ele>372.65</ele>
        <time>2015-06-15T12:42:53Z</time>
      </trkpt>
      <trkpt lat="43.92018" lon="5.42494">
        <ele>371.21</ele>
        <time>2015-06-15T12:43:09Z</time>
      </trkpt>
      <trkpt lat="43.92014" lon="5.425">
        <ele>369.76</ele>
        <time>2015-06-15T12:43:29Z</time>
      </trkpt>
      <trkpt lat="43.92013" lon="5.42504">
        <ele>370.73</ele>
        <time>2015-06-15T12:43:36Z</time>
      </trkpt>
      <trkpt lat="43.92013" lon="5.42516">
        <ele>370.73</ele>
        <time>2015-06-15T12:43:41Z</time>
      </trkpt>
      <trkpt lat="43.92021" lon="5.42539">
        <ele>369.28</ele>
        <time>2015-06-15T12:43:50Z</time>
      </trkpt>
      <trkpt lat="43.92025" lon="5.42549">
        <ele>366.88</ele>
        <time>2015-06-15T12:44:00Z</time>
      </trkpt>
      <trkpt lat="43.92024" lon="5.42548">
        <ele>366.4</ele>
        <time>2015-06-15T12:44:02Z</time>
      </trkpt>
      <trkpt lat="43.92017" lon="5.42538">
        <ele>368.8</ele>
        <time>2015-06-15T12:44:15Z</time>
      </trkpt>
      <trkpt lat="43.92013" lon="5.42531">
        <ele>369.28</ele>
        <time>2015-06-15T12:44:19Z</time>
      </trkpt>
      <trkpt lat="43.92008" lon="5.42526">
        <ele>370.24</ele>
        <time>2015-06-15T12:44:31Z</time>
      </trkpt>
      <trkpt lat="43.92005" lon="5.42534">
        <ele>369.76</ele>
        <time>2015-06-15T12:44:35Z</time>
      </trkpt>
      <trkpt lat="43.92002" lon="5.42539">
        <ele>369.28</ele>
        <time>2015-06-15T12:44:37Z</time>
      </trkpt>
      <trkpt lat="43.91995" lon="5.42545">
        <ele>368.32</ele>
        <time>2015-06-15T12:44:42Z</time>
      </trkpt>
      <trkpt lat="43.91988" lon="5.42557">
        <ele>364.48</ele>
        <time>2015-06-15T12:44:53Z</time>
      </trkpt>
      <trkpt lat="43.91984" lon="5.42568">
        <ele>363.04</ele>
        <time>2015-06-15T12:44:58Z</time>
      </trkpt>
      <trkpt lat="43.91982" lon="5.42577">
        <ele>363.52</ele>
        <time>2015-06-15T12:45:02Z</time>
      </trkpt>
      <trkpt lat="43.91988" lon="5.42586">
        <ele>363.52</ele>
        <time>2015-06-15T12:45:07Z</time>
      </trkpt>
      <trkpt lat="43.91986" lon="5.42595">
        <ele>364.48</ele>
        <time>2015-06-15T12:45:12Z</time>
      </trkpt>
      <trkpt lat="43.91982" lon="5.42622">
        <ele>366.4</ele>
        <time>2015-06-15T12:45:23Z</time>
      </trkpt>
      <trkpt lat="43.91976" lon="5.42647">
        <ele>364.96</ele>
        <time>2015-06-15T12:45:35Z</time>
      </trkpt>
      <trkpt lat="43.91974" lon="5.42656">
        <ele>365.92</ele>
        <time>2015-06-15T12:45:39Z</time>
      </trkpt>
      <trkpt lat="43.91973" lon="5.42664">
        <ele>366.88</ele>
        <time>2015-06-15T12:45:43Z</time>
      </trkpt>
      <trkpt lat="43.91971" lon="5.42676">
        <ele>370.24</ele>
        <time>2015-06-15T12:45:54Z</time>
      </trkpt>
      <trkpt lat="43.91969" lon="5.42689">
        <ele>376.01</ele>
        <time>2015-06-15T12:46:06Z</time>
      </trkpt>
      <trkpt lat="43.91967" lon="5.427">
        <ele>385.15</ele>
        <time>2015-06-15T12:46:21Z</time>
      </trkpt>
      <trkpt lat="43.91966" lon="5.4271">
        <ele>390.43</ele>
        <time>2015-06-15T12:46:30Z</time>
      </trkpt>
      <trkpt lat="43.91967" lon="5.42711">
        <ele>390.43</ele>
        <time>2015-06-15T12:46:31Z</time>
      </trkpt>
      <trkpt lat="43.91974" lon="5.42743">
        <ele>388.99</ele>
        <time>2015-06-15T12:46:42Z</time>
      </trkpt>
      <trkpt lat="43.91976" lon="5.42787">
        <ele>386.11</ele>
        <time>2015-06-15T12:46:53Z</time>
      </trkpt>
      <trkpt lat="43.91975" lon="5.42803">
        <ele>384.66</ele>
        <time>2015-06-15T12:46:58Z</time>
      </trkpt>
      <trkpt lat="43.91988" lon="5.42831">
        <ele>384.18</ele>
        <time>2015-06-15T12:47:08Z</time>
      </trkpt>
      <trkpt lat="43.91992" lon="5.42834">
        <ele>383.7</ele>
        <time>2015-06-15T12:47:10Z</time>
      </trkpt>
      <trkpt lat="43.92026" lon="5.42854">
        <ele>384.18</ele>
        <time>2015-06-15T12:47:24Z</time>
      </trkpt>
      <trkpt lat="43.92039" lon="5.42856">
        <ele>385.63</ele>
        <time>2015-06-15T12:47:29Z</time>
      </trkpt>
      <trkpt lat="43.92051" lon="5.42855">
        <ele>387.55</ele>
        <time>2015-06-15T12:47:34Z</time>
      </trkpt>
      <trkpt lat="43.92077" lon="5.4285">
        <ele>388.99</ele>
        <time>2015-06-15T12:47:43Z</time>
      </trkpt>
      <trkpt lat="43.92087" lon="5.4284">
        <ele>387.55</ele>
        <time>2015-06-15T12:47:49Z</time>
      </trkpt>
      <trkpt lat="43.92095" lon="5.42844">
        <ele>386.59</ele>
        <time>2015-06-15T12:47:56Z</time>
      </trkpt>
      <trkpt lat="43.92099" lon="5.4285">
        <ele>387.55</ele>
        <time>2015-06-15T12:48:08Z</time>
      </trkpt>
      <trkpt lat="43.92101" lon="5.42852">
        <ele>388.03</ele>
        <time>2015-06-15T12:48:13Z</time>
      </trkpt>
      <trkpt lat="43.92105" lon="5.42854">
        <ele>388.99</ele>
        <time>2015-06-15T12:48:20Z</time>
      </trkpt>
      <trkpt lat="43.92111" lon="5.42858">
        <ele>390.43</ele>
        <time>2015-06-15T12:48:24Z</time>
      </trkpt>
      <trkpt lat="43.92114" lon="5.42861">
        <ele>390.91</ele>
        <time>2015-06-15T12:48:27Z</time>
      </trkpt>
      <trkpt lat="43.92123" lon="5.42868">
        <ele>395.24</ele>
        <time>2015-06-15T12:48:37Z</time>
      </trkpt>
      <trkpt lat="43.92126" lon="5.42874">
        <ele>398.12</ele>
        <time>2015-06-15T12:48:43Z</time>
      </trkpt>
      <trkpt lat="43.92131" lon="5.42877">
        <ele>399.57</ele>
        <time>2015-06-15T12:48:48Z</time>
      </trkpt>
      <trkpt lat="43.92138" lon="5.42883">
        <ele>401.97</ele>
        <time>2015-06-15T12:48:55Z</time>
      </trkpt>
      <trkpt lat="43.92149" lon="5.42893">
        <ele>405.81</ele>
        <time>2015-06-15T12:49:08Z</time>
      </trkpt>
      <trkpt lat="43.92172" lon="5.42906">
        <ele>406.77</ele>
        <time>2015-06-15T12:49:18Z</time>
      </trkpt>
      <trkpt lat="43.92189" lon="5.42901">
        <ele>402.93</ele>
        <time>2015-06-15T12:49:27Z</time>
      </trkpt>
      <trkpt lat="43.92192" lon="5.429">
        <ele>401.97</ele>
        <time>2015-06-15T12:49:30Z</time>
      </trkpt>
      <trkpt lat="43.92205" lon="5.4292">
        <ele>398.6</ele>
        <time>2015-06-15T12:49:37Z</time>
      </trkpt>
      <trkpt lat="43.92229" lon="5.42958">
        <ele>396.68</ele>
        <time>2015-06-15T12:49:48Z</time>
      </trkpt>
      <trkpt lat="43.92238" lon="5.4298">
        <ele>395.24</ele>
        <time>2015-06-15T12:49:52Z</time>
      </trkpt>
      <trkpt lat="43.92244" lon="5.42996">
        <ele>394.28</ele>
        <time>2015-06-15T12:49:55Z</time>
      </trkpt>
      <trkpt lat="43.92264" lon="5.43033">
        <ele>392.36</ele>
        <time>2015-06-15T12:50:05Z</time>
      </trkpt>
      <trkpt lat="43.92267" lon="5.43043">
        <ele>391.87</ele>
        <time>2015-06-15T12:50:08Z</time>
      </trkpt>
      <trkpt lat="43.92273" lon="5.4305">
        <ele>388.51</ele>
        <time>2015-06-15T12:50:14Z</time>
      </trkpt>
      <trkpt lat="43.92286" lon="5.43079">
        <ele>381.3</ele>
        <time>2015-06-15T12:50:22Z</time>
      </trkpt>
      <trkpt lat="43.92295" lon="5.4309">
        <ele>378.9</ele>
        <time>2015-06-15T12:50:25Z</time>
      </trkpt>
      <trkpt lat="43.92298" lon="5.43104">
        <ele>375.53</ele>
        <time>2015-06-15T12:50:28Z</time>
      </trkpt>
      <trkpt lat="43.92283" lon="5.43129">
        <ele>366.88</ele>
        <time>2015-06-15T12:50:36Z</time>
      </trkpt>
      <trkpt lat="43.92267" lon="5.43141">
        <ele>360.63</ele>
        <time>2015-06-15T12:50:49Z</time>
      </trkpt>
      <trkpt lat="43.92264" lon="5.43143">
        <ele>359.67</ele>
        <time>2015-06-15T12:51:15Z</time>
      </trkpt>
      <trkpt lat="43.92264" lon="5.43143">
        <ele>359.67</ele>
        <time>2015-06-15T12:51:38Z</time>
      </trkpt>
      <trkpt lat="43.92265" lon="5.43144">
        <ele>360.63</ele>
        <time>2015-06-15T12:52:00Z</time>
      </trkpt>
      <trkpt lat="43.92265" lon="5.43145">
        <ele>360.63</ele>
        <time>2015-06-15T12:52:06Z</time>
      </trkpt>
      <trkpt lat="43.92262" lon="5.43159">
        <ele>359.19</ele>
        <time>2015-06-15T12:52:13Z</time>
      </trkpt>
      <trkpt lat="43.9226" lon="5.43163">
        <ele>358.71</ele>
        <time>2015-06-15T12:52:15Z</time>
      </trkpt>
      <trkpt lat="43.9225" lon="5.43175">
        <ele>359.67</ele>
        <time>2015-06-15T12:52:24Z</time>
      </trkpt>
      <trkpt lat="43.92242" lon="5.43201">
        <ele>358.23</ele>
        <time>2015-06-15T12:52:34Z</time>
      </trkpt>
      <trkpt lat="43.92243" lon="5.43205">
        <ele>359.19</ele>
        <time>2015-06-15T12:52:36Z</time>
      </trkpt>
      <trkpt lat="43.9225" lon="5.43217">
        <ele>358.71</ele>
        <time>2015-06-15T12:52:43Z</time>
      </trkpt>
      <trkpt lat="43.92254" lon="5.4322">
        <ele>358.71</ele>
        <time>2015-06-15T12:52:47Z</time>
      </trkpt>
      <trkpt lat="43.92256" lon="5.4324">
        <ele>357.75</ele>
        <time>2015-06-15T12:52:54Z</time>
      </trkpt>
      <trkpt lat="43.92255" lon="5.43257">
        <ele>358.23</ele>
        <time>2015-06-15T12:52:58Z</time>
      </trkpt>
      <trkpt lat="43.92263" lon="5.43281">
        <ele>362.55</ele>
        <time>2015-06-15T12:53:07Z</time>
      </trkpt>
      <trkpt lat="43.92277" lon="5.43271">
        <ele>364.48</ele>
        <time>2015-06-15T12:53:14Z</time>
      </trkpt>
      <trkpt lat="43.92283" lon="5.43278">
        <ele>364.96</ele>
        <time>2015-06-15T12:53:18Z</time>
      </trkpt>
      <trkpt lat="43.92287" lon="5.43285">
        <ele>365.92</ele>
        <time>2015-06-15T12:53:22Z</time>
      </trkpt>
      <trkpt lat="43.92288" lon="5.43311">
        <ele>368.8</ele>
        <time>2015-06-15T12:53:32Z</time>
      </trkpt>
      <trkpt lat="43.92287" lon="5.43329">
        <ele>370.24</ele>
        <time>2015-06-15T12:53:37Z</time>
      </trkpt>
      <trkpt lat="43.92285" lon="5.43345">
        <ele>371.21</ele>
        <time>2015-06-15T12:53:42Z</time>
      </trkpt>
      <trkpt lat="43.92283" lon="5.43357">
        <ele>372.17</ele>
        <time>2015-06-15T12:53:48Z</time>
      </trkpt>
      <trkpt lat="43.92302" lon="5.43395">
        <ele>373.61</ele>
        <time>2015-06-15T12:53:58Z</time>
      </trkpt>
      <trkpt lat="43.92303" lon="5.43401">
        <ele>373.61</ele>
        <time>2015-06-15T12:53:59Z</time>
      </trkpt>
      <trkpt lat="43.92315" lon="5.43435">
        <ele>374.57</ele>
        <time>2015-06-15T12:54:07Z</time>
      </trkpt>
      <trkpt lat="43.92316" lon="5.43473">
        <ele>375.53</ele>
        <time>2015-06-15T12:54:16Z</time>
      </trkpt>
      <trkpt lat="43.9232" lon="5.43488">
        <ele>374.57</ele>
        <time>2015-06-15T12:54:21Z</time>
      </trkpt>
      <trkpt lat="43.92312" lon="5.43491">
        <ele>371.69</ele>
        <time>2015-06-15T12:54:28Z</time>
      </trkpt>
      <trkpt lat="43.92307" lon="5.43492">
        <ele>371.21</ele>
        <time>2015-06-15T12:54:31Z</time>
      </trkpt>
      <trkpt lat="43.92296" lon="5.43493">
        <ele>368.8</ele>
        <time>2015-06-15T12:54:38Z</time>
      </trkpt>
      <trkpt lat="43.92288" lon="5.43493">
        <ele>369.76</ele>
        <time>2015-06-15T12:54:51Z</time>
      </trkpt>
      <trkpt lat="43.92289" lon="5.43494">
        <ele>369.76</ele>
        <time>2015-06-15T12:54:54Z</time>
      </trkpt>
      <trkpt lat="43.92293" lon="5.43499">
        <ele>370.73</ele>
        <time>2015-06-15T12:54:58Z</time>
      </trkpt>
      <trkpt lat="43.92297" lon="5.43509">
        <ele>371.69</ele>
        <time>2015-06-15T12:55:06Z</time>
      </trkpt>
      <trkpt lat="43.923" lon="5.43512">
        <ele>371.69</ele>
        <time>2015-06-15T12:55:09Z</time>
      </trkpt>
      <trkpt lat="43.9231" lon="5.43518">
        <ele>374.09</ele>
        <time>2015-06-15T12:55:16Z</time>
      </trkpt>
      <trkpt lat="43.92314" lon="5.4352">
        <ele>374.09</ele>
        <time>2015-06-15T12:55:18Z</time>
      </trkpt>
      <trkpt lat="43.92312" lon="5.43531">
        <ele>372.65</ele>
        <time>2015-06-15T12:55:25Z</time>
      </trkpt>
      <trkpt lat="43.92304" lon="5.43534">
        <ele>371.21</ele>
        <time>2015-06-15T12:55:29Z</time>
      </trkpt>
      <trkpt lat="43.92289" lon="5.43547">
        <ele>370.73</ele>
        <time>2015-06-15T12:55:39Z</time>
      </trkpt>
      <trkpt lat="43.92281" lon="5.43562">
        <ele>369.28</ele>
        <time>2015-06-15T12:55:45Z</time>
      </trkpt>
      <trkpt lat="43.92253" lon="5.43589">
        <ele>371.21</ele>
        <time>2015-06-15T12:55:56Z</time>
      </trkpt>
      <trkpt lat="43.92222" lon="5.43609">
        <ele>376.01</ele>
        <time>2015-06-15T12:56:07Z</time>
      </trkpt>
      <trkpt lat="43.9222" lon="5.43612">
        <ele>376.01</ele>
        <time>2015-06-15T12:56:08Z</time>
      </trkpt>
      <trkpt lat="43.92208" lon="5.43627">
        <ele>376.97</ele>
        <time>2015-06-15T12:56:14Z</time>
      </trkpt>
      <trkpt lat="43.92206" lon="5.43635">
        <ele>377.94</ele>
        <time>2015-06-15T12:56:17Z</time>
      </trkpt>
      <trkpt lat="43.92204" lon="5.43649">
        <ele>377.45</ele>
        <time>2015-06-15T12:56:27Z</time>
      </trkpt>
      <trkpt lat="43.92202" lon="5.43656">
        <ele>378.9</ele>
        <time>2015-06-15T12:56:39Z</time>
      </trkpt>
      <trkpt lat="43.92199" lon="5.43661">
        <ele>383.22</ele>
        <time>2015-06-15T12:56:57Z</time>
      </trkpt>
      <trkpt lat="43.92198" lon="5.43666">
        <ele>382.26</ele>
        <time>2015-06-15T12:57:10Z</time>
      </trkpt>
      <trkpt lat="43.92198" lon="5.43669">
        <ele>379.86</ele>
        <time>2015-06-15T12:57:20Z</time>
      </trkpt>
      <trkpt lat="43.92198" lon="5.4367">
        <ele>378.42</ele>
        <time>2015-06-15T12:57:33Z</time>
      </trkpt>
      <trkpt lat="43.92202" lon="5.43672">
        <ele>378.9</ele>
        <time>2015-06-15T12:57:43Z</time>
      </trkpt>
      <trkpt lat="43.92206" lon="5.43671">
        <ele>377.94</ele>
        <time>2015-06-15T12:57:54Z</time>
      </trkpt>
      <trkpt lat="43.92211" lon="5.43669">
        <ele>374.57</ele>
        <time>2015-06-15T12:58:02Z</time>
      </trkpt>
      <trkpt lat="43.9221" lon="5.43664">
        <ele>372.17</ele>
        <time>2015-06-15T12:58:05Z</time>
      </trkpt>
      <trkpt lat="43.92213" lon="5.43656">
        <ele>368.8</ele>
        <time>2015-06-15T12:58:13Z</time>
      </trkpt>
      <trkpt lat="43.92217" lon="5.43656">
        <ele>367.84</ele>
        <time>2015-06-15T12:58:15Z</time>
      </trkpt>
      <trkpt lat="43.92222" lon="5.43667">
        <ele>364.96</ele>
        <time>2015-06-15T12:58:19Z</time>
      </trkpt>
      <trkpt lat="43.92223" lon="5.43673">
        <ele>364.48</ele>
        <time>2015-06-15T12:58:20Z</time>
      </trkpt>
      <trkpt lat="43.92224" lon="5.43679">
        <ele>364</ele>
        <time>2015-06-15T12:58:21Z</time>
      </trkpt>
      <trkpt lat="43.92223" lon="5.43683">
        <ele>363.52</ele>
        <time>2015-06-15T12:58:22Z</time>
      </trkpt>
      <trkpt lat="43.92222" lon="5.43687">
        <ele>363.52</ele>
        <time>2015-06-15T12:58:23Z</time>
      </trkpt>
      <trkpt lat="43.9222" lon="5.43691">
        <ele>363.04</ele>
        <time>2015-06-15T12:58:24Z</time>
      </trkpt>
      <trkpt lat="43.9221" lon="5.43704">
        <ele>361.59</ele>
        <time>2015-06-15T12:58:28Z</time>
      </trkpt>
      <trkpt lat="43.92207" lon="5.43705">
        <ele>361.11</ele>
        <time>2015-06-15T12:58:29Z</time>
      </trkpt>
      <trkpt lat="43.92198" lon="5.4371">
        <ele>359.67</ele>
        <time>2015-06-15T12:58:40Z</time>
      </trkpt>
      <trkpt lat="43.92205" lon="5.43713">
        <ele>358.23</ele>
        <time>2015-06-15T12:59:06Z</time>
      </trkpt>
      <trkpt lat="43.92205" lon="5.43711">
        <ele>358.23</ele>
        <time>2015-06-15T12:59:27Z</time>
      </trkpt>
      <trkpt lat="43.92206" lon="5.43711">
        <ele>360.15</ele>
        <time>2015-06-15T12:59:40Z</time>
      </trkpt>
      <trkpt lat="43.92201" lon="5.43725">
        <ele>361.11</ele>
        <time>2015-06-15T12:59:46Z</time>
      </trkpt>
      <trkpt lat="43.92201" lon="5.43731">
        <ele>360.63</ele>
        <time>2015-06-15T12:59:48Z</time>
      </trkpt>
      <trkpt lat="43.92205" lon="5.4374">
        <ele>359.19</ele>
        <time>2015-06-15T12:59:52Z</time>
      </trkpt>
      <trkpt lat="43.92213" lon="5.43745">
        <ele>359.19</ele>
        <time>2015-06-15T12:59:59Z</time>
      </trkpt>
      <trkpt lat="43.92223" lon="5.43754">
        <ele>361.11</ele>
        <time>2015-06-15T13:00:07Z</time>
      </trkpt>
      <trkpt lat="43.92226" lon="5.43755">
        <ele>361.11</ele>
        <time>2015-06-15T13:00:14Z</time>
      </trkpt>
      <trkpt lat="43.92218" lon="5.43753">
        <ele>361.11</ele>
        <time>2015-06-15T13:00:19Z</time>
      </trkpt>
      <trkpt lat="43.92212" lon="5.43753">
        <ele>360.63</ele>
        <time>2015-06-15T13:00:24Z</time>
      </trkpt>
      <trkpt lat="43.92209" lon="5.43764">
        <ele>362.07</ele>
        <time>2015-06-15T13:00:34Z</time>
      </trkpt>
      <trkpt lat="43.92207" lon="5.43763">
        <ele>363.04</ele>
        <time>2015-06-15T13:00:46Z</time>
      </trkpt>
      <trkpt lat="43.9221" lon="5.43758">
        <ele>360.15</ele>
        <time>2015-06-15T13:00:53Z</time>
      </trkpt>
      <trkpt lat="43.92216" lon="5.43758">
        <ele>357.27</ele>
        <time>2015-06-15T13:00:58Z</time>
      </trkpt>
      <trkpt lat="43.92243" lon="5.43763">
        <ele>356.79</ele>
        <time>2015-06-15T13:01:10Z</time>
      </trkpt>
      <trkpt lat="43.92247" lon="5.4377">
        <ele>357.27</ele>
        <time>2015-06-15T13:01:13Z</time>
      </trkpt>
      <trkpt lat="43.92247" lon="5.43787">
        <ele>359.19</ele>
        <time>2015-06-15T13:01:20Z</time>
      </trkpt>
      <trkpt lat="43.92227" lon="5.43795">
        <ele>363.04</ele>
        <time>2015-06-15T13:01:32Z</time>
      </trkpt>
      <trkpt lat="43.92224" lon="5.43795">
        <ele>363.52</ele>
        <time>2015-06-15T13:01:33Z</time>
      </trkpt>
      <trkpt lat="43.92202" lon="5.43789">
        <ele>368.32</ele>
        <time>2015-06-15T13:01:45Z</time>
      </trkpt>
      <trkpt lat="43.92192" lon="5.43788">
        <ele>369.76</ele>
        <time>2015-06-15T13:01:49Z</time>
      </trkpt>
      <trkpt lat="43.92173" lon="5.43776">
        <ele>374.09</ele>
        <time>2015-06-15T13:02:00Z</time>
      </trkpt>
      <trkpt lat="43.92165" lon="5.43774">
        <ele>374.57</ele>
        <time>2015-06-15T13:02:06Z</time>
      </trkpt>
      <trkpt lat="43.92159" lon="5.43768">
        <ele>376.01</ele>
        <time>2015-06-15T13:02:20Z</time>
      </trkpt>
      <trkpt lat="43.92149" lon="5.43763">
        <ele>378.9</ele>
        <time>2015-06-15T13:02:28Z</time>
      </trkpt>
      <trkpt lat="43.92144" lon="5.43766">
        <ele>380.34</ele>
        <time>2015-06-15T13:02:33Z</time>
      </trkpt>
      <trkpt lat="43.9213" lon="5.43767">
        <ele>384.66</ele>
        <time>2015-06-15T13:02:45Z</time>
      </trkpt>
      <trkpt lat="43.92124" lon="5.4377">
        <ele>388.99</ele>
        <time>2015-06-15T13:02:55Z</time>
      </trkpt>
      <trkpt lat="43.92112" lon="5.43772">
        <ele>392.84</ele>
        <time>2015-06-15T13:03:07Z</time>
      </trkpt>
      <trkpt lat="43.92097" lon="5.43772">
        <ele>396.2</ele>
        <time>2015-06-15T13:03:19Z</time>
      </trkpt>
      <trkpt lat="43.92089" lon="5.4377">
        <ele>397.64</ele>
        <time>2015-06-15T13:03:29Z</time>
      </trkpt>
      <trkpt lat="43.92075" lon="5.43766">
        <ele>399.08</ele>
        <time>2015-06-15T13:03:37Z</time>
      </trkpt>
      <trkpt lat="43.92054" lon="5.43761">
        <ele>398.6</ele>
        <time>2015-06-15T13:03:48Z</time>
      </trkpt>
      <trkpt lat="43.92052" lon="5.4376">
        <ele>398.6</ele>
        <time>2015-06-15T13:03:49Z</time>
      </trkpt>
      <trkpt lat="43.92043" lon="5.43755">
        <ele>398.6</ele>
        <time>2015-06-15T13:03:53Z</time>
      </trkpt>
      <trkpt lat="43.92028" lon="5.43743">
        <ele>398.6</ele>
        <time>2015-06-15T13:04:00Z</time>
      </trkpt>
      <trkpt lat="43.92014" lon="5.43732">
        <ele>399.08</ele>
        <time>2015-06-15T13:04:07Z</time>
      </trkpt>
      <trkpt lat="43.92007" lon="5.43721">
        <ele>400.53</ele>
        <time>2015-06-15T13:04:13Z</time>
      </trkpt>
      <trkpt lat="43.91998" lon="5.4369">
        <ele>405.33</ele>
        <time>2015-06-15T13:04:26Z</time>
      </trkpt>
      <trkpt lat="43.91999" lon="5.43685">
        <ele>406.29</ele>
        <time>2015-06-15T13:04:28Z</time>
      </trkpt>
      <trkpt lat="43.91994" lon="5.43676">
        <ele>407.26</ele>
        <time>2015-06-15T13:04:32Z</time>
      </trkpt>
      <trkpt lat="43.91977" lon="5.43664">
        <ele>408.7</ele>
        <time>2015-06-15T13:04:39Z</time>
      </trkpt>
      <trkpt lat="43.9197" lon="5.43668">
        <ele>408.22</ele>
        <time>2015-06-15T13:04:43Z</time>
      </trkpt>
      <trkpt lat="43.91936" lon="5.4369">
        <ele>406.29</ele>
        <time>2015-06-15T13:04:56Z</time>
      </trkpt>
      <trkpt lat="43.91908" lon="5.43693">
        <ele>405.33</ele>
        <time>2015-06-15T13:05:04Z</time>
      </trkpt>
      <trkpt lat="43.91875" lon="5.43706">
        <ele>401.97</ele>
        <time>2015-06-15T13:05:13Z</time>
      </trkpt>
      <trkpt lat="43.91853" lon="5.43709">
        <ele>399.08</ele>
        <time>2015-06-15T13:05:25Z</time>
      </trkpt>
      <trkpt lat="43.91849" lon="5.43709">
        <ele>399.08</ele>
        <time>2015-06-15T13:05:27Z</time>
      </trkpt>
      <trkpt lat="43.91845" lon="5.4371">
        <ele>399.08</ele>
        <time>2015-06-15T13:05:30Z</time>
      </trkpt>
      <trkpt lat="43.91843" lon="5.4371">
        <ele>399.08</ele>
        <time>2015-06-15T13:05:31Z</time>
      </trkpt>
      <trkpt lat="43.91841" lon="5.4371">
        <ele>399.08</ele>
        <time>2015-06-15T13:05:32Z</time>
      </trkpt>
      <trkpt lat="43.91839" lon="5.4371">
        <ele>399.08</ele>
        <time>2015-06-15T13:05:33Z</time>
      </trkpt>
      <trkpt lat="43.91837" lon="5.43709">
        <ele>399.57</ele>
        <time>2015-06-15T13:05:34Z</time>
      </trkpt>
      <trkpt lat="43.91828" lon="5.43708">
        <ele>400.05</ele>
        <time>2015-06-15T13:05:46Z</time>
      </trkpt>
      <trkpt lat="43.91826" lon="5.43707">
        <ele>400.53</ele>
        <time>2015-06-15T13:06:10Z</time>
      </trkpt>
      <trkpt lat="43.91823" lon="5.43707">
        <ele>400.53</ele>
        <time>2015-06-15T13:06:35Z</time>
      </trkpt>
      <trkpt lat="43.91821" lon="5.43707">
        <ele>400.53</ele>
        <time>2015-06-15T13:06:36Z</time>
      </trkpt>
      <trkpt lat="43.9182" lon="5.43707">
        <ele>400.53</ele>
        <time>2015-06-15T13:06:37Z</time>
      </trkpt>
      <trkpt lat="43.91819" lon="5.43705">
        <ele>400.53</ele>
        <time>2015-06-15T13:06:47Z</time>
      </trkpt>
      <trkpt lat="43.91818" lon="5.43705">
        <ele>400.05</ele>
        <time>2015-06-15T13:06:54Z</time>
      </trkpt>
      <trkpt lat="43.91816" lon="5.43704">
        <ele>400.05</ele>
        <time>2015-06-15T13:06:55Z</time>
      </trkpt>
      <trkpt lat="43.91815" lon="5.43704">
        <ele>400.05</ele>
        <time>2015-06-15T13:06:56Z</time>
      </trkpt>
      <trkpt lat="43.9181" lon="5.43705">
        <ele>400.05</ele>
        <time>2015-06-15T13:07:07Z</time>
      </trkpt>
      <trkpt lat="43.91812" lon="5.43705">
        <ele>399.08</ele>
        <time>2015-06-15T13:07:18Z</time>
      </trkpt>
      <trkpt lat="43.91822" lon="5.43707">
        <ele>401.01</ele>
        <time>2015-06-15T13:07:26Z</time>
      </trkpt>
      <trkpt lat="43.9183" lon="5.43706">
        <ele>402.45</ele>
        <time>2015-06-15T13:07:31Z</time>
      </trkpt>
      <trkpt lat="43.91835" lon="5.43706">
        <ele>403.41</ele>
        <time>2015-06-15T13:07:39Z</time>
      </trkpt>
      <trkpt lat="43.91826" lon="5.43708">
        <ele>405.33</ele>
        <time>2015-06-15T13:07:45Z</time>
      </trkpt>
      <trkpt lat="43.91808" lon="5.43706">
        <ele>405.33</ele>
        <time>2015-06-15T13:07:53Z</time>
      </trkpt>
      <trkpt lat="43.91794" lon="5.43706">
        <ele>404.37</ele>
        <time>2015-06-15T13:07:57Z</time>
      </trkpt>
      <trkpt lat="43.91762" lon="5.43702">
        <ele>402.93</ele>
        <time>2015-06-15T13:08:03Z</time>
      </trkpt>
      <trkpt lat="43.91756" lon="5.43701">
        <ele>402.93</ele>
        <time>2015-06-15T13:08:04Z</time>
      </trkpt>
      <trkpt lat="43.9175" lon="5.43699">
        <ele>402.93</ele>
        <time>2015-06-15T13:08:05Z</time>
      </trkpt>
      <trkpt lat="43.91745" lon="5.43697">
        <ele>402.93</ele>
        <time>2015-06-15T13:08:06Z</time>
      </trkpt>
      <trkpt lat="43.91739" lon="5.43695">
        <ele>402.45</ele>
        <time>2015-06-15T13:08:07Z</time>
      </trkpt>
      <trkpt lat="43.91724" lon="5.4369">
        <ele>402.45</ele>
        <time>2015-06-15T13:08:10Z</time>
      </trkpt>
      <trkpt lat="43.9172" lon="5.4369">
        <ele>402.45</ele>
        <time>2015-06-15T13:08:11Z</time>
      </trkpt>
      <trkpt lat="43.91715" lon="5.43689">
        <ele>401.97</ele>
        <time>2015-06-15T13:08:12Z</time>
      </trkpt>
      <trkpt lat="43.9171" lon="5.43689">
        <ele>401.97</ele>
        <time>2015-06-15T13:08:13Z</time>
      </trkpt>
      <trkpt lat="43.91705" lon="5.43687">
        <ele>401.49</ele>
        <time>2015-06-15T13:08:14Z</time>
      </trkpt>
      <trkpt lat="43.91699" lon="5.43685">
        <ele>401.49</ele>
        <time>2015-06-15T13:08:15Z</time>
      </trkpt>
      <trkpt lat="43.91694" lon="5.43684">
        <ele>401.01</ele>
        <time>2015-06-15T13:08:16Z</time>
      </trkpt>
      <trkpt lat="43.91689" lon="5.43685">
        <ele>400.53</ele>
        <time>2015-06-15T13:08:17Z</time>
      </trkpt>
      <trkpt lat="43.91684" lon="5.43683">
        <ele>400.05</ele>
        <time>2015-06-15T13:08:18Z</time>
      </trkpt>
      <trkpt lat="43.91678" lon="5.43682">
        <ele>399.08</ele>
        <time>2015-06-15T13:08:19Z</time>
      </trkpt>
      <trkpt lat="43.91668" lon="5.4368">
        <ele>397.64</ele>
        <time>2015-06-15T13:08:21Z</time>
      </trkpt>
      <trkpt lat="43.91663" lon="5.43681">
        <ele>396.68</ele>
        <time>2015-06-15T13:08:22Z</time>
      </trkpt>
      <trkpt lat="43.91658" lon="5.43683">
        <ele>395.72</ele>
        <time>2015-06-15T13:08:23Z</time>
      </trkpt>
      <trkpt lat="43.91652" lon="5.43684">
        <ele>395.24</ele>
        <time>2015-06-15T13:08:24Z</time>
      </trkpt>
      <trkpt lat="43.91646" lon="5.43685">
        <ele>394.28</ele>
        <time>2015-06-15T13:08:25Z</time>
      </trkpt>
      <trkpt lat="43.91641" lon="5.43686">
        <ele>393.32</ele>
        <time>2015-06-15T13:08:26Z</time>
      </trkpt>
      <trkpt lat="43.91611" lon="5.4369">
        <ele>388.51</ele>
        <time>2015-06-15T13:08:31Z</time>
      </trkpt>
      <trkpt lat="43.91606" lon="5.4369">
        <ele>387.07</ele>
        <time>2015-06-15T13:08:32Z</time>
      </trkpt>
      <trkpt lat="43.916" lon="5.43691">
        <ele>386.11</ele>
        <time>2015-06-15T13:08:33Z</time>
      </trkpt>
      <trkpt lat="43.91569" lon="5.43693">
        <ele>380.82</ele>
        <time>2015-06-15T13:08:38Z</time>
      </trkpt>
      <trkpt lat="43.91564" lon="5.43696">
        <ele>379.86</ele>
        <time>2015-06-15T13:08:39Z</time>
      </trkpt>
      <trkpt lat="43.91559" lon="5.43698">
        <ele>378.9</ele>
        <time>2015-06-15T13:08:40Z</time>
      </trkpt>
      <trkpt lat="43.91553" lon="5.43699">
        <ele>377.94</ele>
        <time>2015-06-15T13:08:41Z</time>
      </trkpt>
      <trkpt lat="43.91547" lon="5.43697">
        <ele>376.97</ele>
        <time>2015-06-15T13:08:42Z</time>
      </trkpt>
      <trkpt lat="43.91536" lon="5.43695">
        <ele>375.05</ele>
        <time>2015-06-15T13:08:44Z</time>
      </trkpt>
      <trkpt lat="43.91524" lon="5.43697">
        <ele>373.13</ele>
        <time>2015-06-15T13:08:46Z</time>
      </trkpt>
      <trkpt lat="43.91518" lon="5.43697">
        <ele>372.17</ele>
        <time>2015-06-15T13:08:47Z</time>
      </trkpt>
      <trkpt lat="43.91512" lon="5.43695">
        <ele>371.21</ele>
        <time>2015-06-15T13:08:48Z</time>
      </trkpt>
      <trkpt lat="43.91507" lon="5.43691">
        <ele>370.24</ele>
        <time>2015-06-15T13:08:49Z</time>
      </trkpt>
      <trkpt lat="43.91504" lon="5.43684">
        <ele>369.28</ele>
        <time>2015-06-15T13:08:50Z</time>
      </trkpt>
      <trkpt lat="43.91502" lon="5.43676">
        <ele>367.84</ele>
        <time>2015-06-15T13:08:51Z</time>
      </trkpt>
      <trkpt lat="43.915" lon="5.43668">
        <ele>366.4</ele>
        <time>2015-06-15T13:08:52Z</time>
      </trkpt>
      <trkpt lat="43.91497" lon="5.43662">
        <ele>365.44</ele>
        <time>2015-06-15T13:08:53Z</time>
      </trkpt>
      <trkpt lat="43.91492" lon="5.4365">
        <ele>362.55</ele>
        <time>2015-06-15T13:08:55Z</time>
      </trkpt>
      <trkpt lat="43.91489" lon="5.43644">
        <ele>361.11</ele>
        <time>2015-06-15T13:08:56Z</time>
      </trkpt>
      <trkpt lat="43.91486" lon="5.43638">
        <ele>360.15</ele>
        <time>2015-06-15T13:08:57Z</time>
      </trkpt>
      <trkpt lat="43.91484" lon="5.43632">
        <ele>358.71</ele>
        <time>2015-06-15T13:08:58Z</time>
      </trkpt>
      <trkpt lat="43.91481" lon="5.43629">
        <ele>357.27</ele>
        <time>2015-06-15T13:08:59Z</time>
      </trkpt>
      <trkpt lat="43.91477" lon="5.43627">
        <ele>356.31</ele>
        <time>2015-06-15T13:09:00Z</time>
      </trkpt>
      <trkpt lat="43.91473" lon="5.43626">
        <ele>354.86</ele>
        <time>2015-06-15T13:09:01Z</time>
      </trkpt>
      <trkpt lat="43.91469" lon="5.43626">
        <ele>353.9</ele>
        <time>2015-06-15T13:09:02Z</time>
      </trkpt>
      <trkpt lat="43.91465" lon="5.43627">
        <ele>352.94</ele>
        <time>2015-06-15T13:09:03Z</time>
      </trkpt>
      <trkpt lat="43.91461" lon="5.43628">
        <ele>351.98</ele>
        <time>2015-06-15T13:09:04Z</time>
      </trkpt>
      <trkpt lat="43.91456" lon="5.43629">
        <ele>351.02</ele>
        <time>2015-06-15T13:09:05Z</time>
      </trkpt>
      <trkpt lat="43.91451" lon="5.43629">
        <ele>349.58</ele>
        <time>2015-06-15T13:09:06Z</time>
      </trkpt>
      <trkpt lat="43.91446" lon="5.43627">
        <ele>348.13</ele>
        <time>2015-06-15T13:09:07Z</time>
      </trkpt>
      <trkpt lat="43.91441" lon="5.43624">
        <ele>346.69</ele>
        <time>2015-06-15T13:09:08Z</time>
      </trkpt>
      <trkpt lat="43.91437" lon="5.43622">
        <ele>345.25</ele>
        <time>2015-06-15T13:09:09Z</time>
      </trkpt>
      <trkpt lat="43.91433" lon="5.43621">
        <ele>343.81</ele>
        <time>2015-06-15T13:09:10Z</time>
      </trkpt>
      <trkpt lat="43.9143" lon="5.43621">
        <ele>342.85</ele>
        <time>2015-06-15T13:09:11Z</time>
      </trkpt>
      <trkpt lat="43.91425" lon="5.43622">
        <ele>340.92</ele>
        <time>2015-06-15T13:09:14Z</time>
      </trkpt>
      <trkpt lat="43.91425" lon="5.43625">
        <ele>340.44</ele>
        <time>2015-06-15T13:09:16Z</time>
      </trkpt>
      <trkpt lat="43.91425" lon="5.43627">
        <ele>340.44</ele>
        <time>2015-06-15T13:09:17Z</time>
      </trkpt>
      <trkpt lat="43.91425" lon="5.43627">
        <ele>339.96</ele>
        <time>2015-06-15T13:09:25Z</time>
      </trkpt>
      <trkpt lat="43.91405" lon="5.43621">
        <ele>338.04</ele>
        <time>2015-06-15T13:09:32Z</time>
      </trkpt>
      <trkpt lat="43.91401" lon="5.43621">
        <ele>337.56</ele>
        <time>2015-06-15T13:09:33Z</time>
      </trkpt>
      <trkpt lat="43.91397" lon="5.43618">
        <ele>337.08</ele>
        <time>2015-06-15T13:09:34Z</time>
      </trkpt>
      <trkpt lat="43.91394" lon="5.43613">
        <ele>336.12</ele>
        <time>2015-06-15T13:09:35Z</time>
      </trkpt>
      <trkpt lat="43.91392" lon="5.43607">
        <ele>335.64</ele>
        <time>2015-06-15T13:09:36Z</time>
      </trkpt>
      <trkpt lat="43.91388" lon="5.43604">
        <ele>335.16</ele>
        <time>2015-06-15T13:09:37Z</time>
      </trkpt>
      <trkpt lat="43.91384" lon="5.43603">
        <ele>334.2</ele>
        <time>2015-06-15T13:09:38Z</time>
      </trkpt>
      <trkpt lat="43.91379" lon="5.43605">
        <ele>333.71</ele>
        <time>2015-06-15T13:09:39Z</time>
      </trkpt>
      <trkpt lat="43.91374" lon="5.43606">
        <ele>332.75</ele>
        <time>2015-06-15T13:09:40Z</time>
      </trkpt>
      <trkpt lat="43.91369" lon="5.43605">
        <ele>332.27</ele>
        <time>2015-06-15T13:09:41Z</time>
      </trkpt>
      <trkpt lat="43.91364" lon="5.43602">
        <ele>331.79</ele>
        <time>2015-06-15T13:09:42Z</time>
      </trkpt>
      <trkpt lat="43.91359" lon="5.43601">
        <ele>330.83</ele>
        <time>2015-06-15T13:09:43Z</time>
      </trkpt>
      <trkpt lat="43.91353" lon="5.43603">
        <ele>330.35</ele>
        <time>2015-06-15T13:09:44Z</time>
      </trkpt>
      <trkpt lat="43.91348" lon="5.43604">
        <ele>329.87</ele>
        <time>2015-06-15T13:09:45Z</time>
      </trkpt>
      <trkpt lat="43.91341" lon="5.43604">
        <ele>329.39</ele>
        <time>2015-06-15T13:09:46Z</time>
      </trkpt>
      <trkpt lat="43.9133" lon="5.43602">
        <ele>328.43</ele>
        <time>2015-06-15T13:09:48Z</time>
      </trkpt>
      <trkpt lat="43.91324" lon="5.43601">
        <ele>327.95</ele>
        <time>2015-06-15T13:09:49Z</time>
      </trkpt>
      <trkpt lat="43.9132" lon="5.43598">
        <ele>326.99</ele>
        <time>2015-06-15T13:09:50Z</time>
      </trkpt>
      <trkpt lat="43.91316" lon="5.43596">
        <ele>326.5</ele>
        <time>2015-06-15T13:09:51Z</time>
      </trkpt>
      <trkpt lat="43.91313" lon="5.43596">
        <ele>325.54</ele>
        <time>2015-06-15T13:09:52Z</time>
      </trkpt>
      <trkpt lat="43.9131" lon="5.43596">
        <ele>324.1</ele>
        <time>2015-06-15T13:10:02Z</time>
      </trkpt>
      <trkpt lat="43.91311" lon="5.43595">
        <ele>322.66</ele>
        <time>2015-06-15T13:10:22Z</time>
      </trkpt>
      <trkpt lat="43.91311" lon="5.43593">
        <ele>321.22</ele>
        <time>2015-06-15T13:10:53Z</time>
      </trkpt>
      <trkpt lat="43.91311" lon="5.43594">
        <ele>321.7</ele>
        <time>2015-06-15T13:11:26Z</time>
      </trkpt>
      <trkpt lat="43.91313" lon="5.43593">
        <ele>321.7</ele>
        <time>2015-06-15T13:11:34Z</time>
      </trkpt>
      <trkpt lat="43.91335" lon="5.43571">
        <ele>321.7</ele>
        <time>2015-06-15T13:11:46Z</time>
      </trkpt>
      <trkpt lat="43.91355" lon="5.4356">
        <ele>322.18</ele>
        <time>2015-06-15T13:11:56Z</time>
      </trkpt>
      <trkpt lat="43.91358" lon="5.43558">
        <ele>322.18</ele>
        <time>2015-06-15T13:12:23Z</time>
      </trkpt>
      <trkpt lat="43.91365" lon="5.43553">
        <ele>322.66</ele>
        <time>2015-06-15T13:12:29Z</time>
      </trkpt>
      <trkpt lat="43.91366" lon="5.4355">
        <ele>322.66</ele>
        <time>2015-06-15T13:12:30Z</time>
      </trkpt>
      <trkpt lat="43.91368" lon="5.43545">
        <ele>322.18</ele>
        <time>2015-06-15T13:12:32Z</time>
      </trkpt>
      <trkpt lat="43.9137" lon="5.43544">
        <ele>322.18</ele>
        <time>2015-06-15T13:12:33Z</time>
      </trkpt>
      <trkpt lat="43.91373" lon="5.43541">
        <ele>322.18</ele>
        <time>2015-06-15T13:12:34Z</time>
      </trkpt>
      <trkpt lat="43.91375" lon="5.43539">
        <ele>322.18</ele>
        <time>2015-06-15T13:12:35Z</time>
      </trkpt>
      <trkpt lat="43.91377" lon="5.43536">
        <ele>322.18</ele>
        <time>2015-06-15T13:12:36Z</time>
      </trkpt>
      <trkpt lat="43.91379" lon="5.43531">
        <ele>322.18</ele>
        <time>2015-06-15T13:12:38Z</time>
      </trkpt>
      <trkpt lat="43.91379" lon="5.43529">
        <ele>322.18</ele>
        <time>2015-06-15T13:12:39Z</time>
      </trkpt>
      <trkpt lat="43.91382" lon="5.43517">
        <ele>322.18</ele>
        <time>2015-06-15T13:12:45Z</time>
      </trkpt>
      <trkpt lat="43.91383" lon="5.43516">
        <ele>322.18</ele>
        <time>2015-06-15T13:12:46Z</time>
      </trkpt>
      <trkpt lat="43.91404" lon="5.43487">
        <ele>321.7</ele>
        <time>2015-06-15T13:12:58Z</time>
      </trkpt>
      <trkpt lat="43.91408" lon="5.43482">
        <ele>322.66</ele>
        <time>2015-06-15T13:13:01Z</time>
      </trkpt>
      <trkpt lat="43.91409" lon="5.4348">
        <ele>322.66</ele>
        <time>2015-06-15T13:13:02Z</time>
      </trkpt>
      <trkpt lat="43.91409" lon="5.43477">
        <ele>323.14</ele>
        <time>2015-06-15T13:13:03Z</time>
      </trkpt>
      <trkpt lat="43.91409" lon="5.43475">
        <ele>323.14</ele>
        <time>2015-06-15T13:13:04Z</time>
      </trkpt>
      <trkpt lat="43.91409" lon="5.43473">
        <ele>323.62</ele>
        <time>2015-06-15T13:13:05Z</time>
      </trkpt>
      <trkpt lat="43.91408" lon="5.43471">
        <ele>324.1</ele>
        <time>2015-06-15T13:13:06Z</time>
      </trkpt>
      <trkpt lat="43.91407" lon="5.43469">
        <ele>324.1</ele>
        <time>2015-06-15T13:13:07Z</time>
      </trkpt>
      <trkpt lat="43.91406" lon="5.43466">
        <ele>324.1</ele>
        <time>2015-06-15T13:13:08Z</time>
      </trkpt>
      <trkpt lat="43.91405" lon="5.43464">
        <ele>324.58</ele>
        <time>2015-06-15T13:13:09Z</time>
      </trkpt>
      <trkpt lat="43.91405" lon="5.43462">
        <ele>324.58</ele>
        <time>2015-06-15T13:13:10Z</time>
      </trkpt>
      <trkpt lat="43.91405" lon="5.4346">
        <ele>325.06</ele>
        <time>2015-06-15T13:13:11Z</time>
      </trkpt>
      <trkpt lat="43.91405" lon="5.43457">
        <ele>325.54</ele>
        <time>2015-06-15T13:13:12Z</time>
      </trkpt>
      <trkpt lat="43.91405" lon="5.43455">
        <ele>325.54</ele>
        <time>2015-06-15T13:13:13Z</time>
      </trkpt>
      <trkpt lat="43.91406" lon="5.43452">
        <ele>326.02</ele>
        <time>2015-06-15T13:13:14Z</time>
      </trkpt>
      <trkpt lat="43.91407" lon="5.43449">
        <ele>326.02</ele>
        <time>2015-06-15T13:13:15Z</time>
      </trkpt>
      <trkpt lat="43.91408" lon="5.43446">
        <ele>326.02</ele>
        <time>2015-06-15T13:13:16Z</time>
      </trkpt>
      <trkpt lat="43.91419" lon="5.43404">
        <ele>326.5</ele>
        <time>2015-06-15T13:13:27Z</time>
      </trkpt>
      <trkpt lat="43.91446" lon="5.43363">
        <ele>328.91</ele>
        <time>2015-06-15T13:13:39Z</time>
      </trkpt>
      <trkpt lat="43.91476" lon="5.4335">
        <ele>330.35</ele>
        <time>2015-06-15T13:13:49Z</time>
      </trkpt>
      <trkpt lat="43.91503" lon="5.43345">
        <ele>329.39</ele>
        <time>2015-06-15T13:13:58Z</time>
      </trkpt>
      <trkpt lat="43.91527" lon="5.43325">
        <ele>327.95</ele>
        <time>2015-06-15T13:14:06Z</time>
      </trkpt>
      <trkpt lat="43.91526" lon="5.43321">
        <ele>327.95</ele>
        <time>2015-06-15T13:14:07Z</time>
      </trkpt>
      <trkpt lat="43.91526" lon="5.43317">
        <ele>327.95</ele>
        <time>2015-06-15T13:14:08Z</time>
      </trkpt>
      <trkpt lat="43.91525" lon="5.43315">
        <ele>327.95</ele>
        <time>2015-06-15T13:14:09Z</time>
      </trkpt>
      <trkpt lat="43.91524" lon="5.43312">
        <ele>328.43</ele>
        <time>2015-06-15T13:14:10Z</time>
      </trkpt>
      <trkpt lat="43.91523" lon="5.43309">
        <ele>328.91</ele>
        <time>2015-06-15T13:14:11Z</time>
      </trkpt>
      <trkpt lat="43.91521" lon="5.43306">
        <ele>329.39</ele>
        <time>2015-06-15T13:14:12Z</time>
      </trkpt>
      <trkpt lat="43.91519" lon="5.43304">
        <ele>329.39</ele>
        <time>2015-06-15T13:14:13Z</time>
      </trkpt>
      <trkpt lat="43.91488" lon="5.43282">
        <ele>329.87</ele>
        <time>2015-06-15T13:14:25Z</time>
      </trkpt>
      <trkpt lat="43.91484" lon="5.43242">
        <ele>332.27</ele>
        <time>2015-06-15T13:14:35Z</time>
      </trkpt>
      <trkpt lat="43.91498" lon="5.43188">
        <ele>334.2</ele>
        <time>2015-06-15T13:14:48Z</time>
      </trkpt>
      <trkpt lat="43.91527" lon="5.4315">
        <ele>335.16</ele>
        <time>2015-06-15T13:14:59Z</time>
      </trkpt>
      <trkpt lat="43.91538" lon="5.4314">
        <ele>335.64</ele>
        <time>2015-06-15T13:15:04Z</time>
      </trkpt>
      <trkpt lat="43.91541" lon="5.4314">
        <ele>336.12</ele>
        <time>2015-06-15T13:15:05Z</time>
      </trkpt>
      <trkpt lat="43.91544" lon="5.43139">
        <ele>335.64</ele>
        <time>2015-06-15T13:15:06Z</time>
      </trkpt>
      <trkpt lat="43.91548" lon="5.43139">
        <ele>336.12</ele>
        <time>2015-06-15T13:15:07Z</time>
      </trkpt>
      <trkpt lat="43.91551" lon="5.43139">
        <ele>336.12</ele>
        <time>2015-06-15T13:15:08Z</time>
      </trkpt>
      <trkpt lat="43.91555" lon="5.43137">
        <ele>336.12</ele>
        <time>2015-06-15T13:15:09Z</time>
      </trkpt>
      <trkpt lat="43.91557" lon="5.43134">
        <ele>336.12</ele>
        <time>2015-06-15T13:15:10Z</time>
      </trkpt>
      <trkpt lat="43.91557" lon="5.4313">
        <ele>336.12</ele>
        <time>2015-06-15T13:15:11Z</time>
      </trkpt>
      <trkpt lat="43.91556" lon="5.43126">
        <ele>336.12</ele>
        <time>2015-06-15T13:15:12Z</time>
      </trkpt>
      <trkpt lat="43.91554" lon="5.43122">
        <ele>336.12</ele>
        <time>2015-06-15T13:15:13Z</time>
      </trkpt>
      <trkpt lat="43.91552" lon="5.43119">
        <ele>335.64</ele>
        <time>2015-06-15T13:15:14Z</time>
      </trkpt>
      <trkpt lat="43.9155" lon="5.43116">
        <ele>336.12</ele>
        <time>2015-06-15T13:15:15Z</time>
      </trkpt>
      <trkpt lat="43.91548" lon="5.43112">
        <ele>336.12</ele>
        <time>2015-06-15T13:15:16Z</time>
      </trkpt>
      <trkpt lat="43.91547" lon="5.43108">
        <ele>336.12</ele>
        <time>2015-06-15T13:15:17Z</time>
      </trkpt>
      <trkpt lat="43.91548" lon="5.43104">
        <ele>336.12</ele>
        <time>2015-06-15T13:15:18Z</time>
      </trkpt>
      <trkpt lat="43.9155" lon="5.431">
        <ele>336.6</ele>
        <time>2015-06-15T13:15:19Z</time>
      </trkpt>
      <trkpt lat="43.91558" lon="5.43055">
        <ele>338.52</ele>
        <time>2015-06-15T13:15:30Z</time>
      </trkpt>
      <trkpt lat="43.91565" lon="5.43031">
        <ele>339</ele>
        <time>2015-06-15T13:15:37Z</time>
      </trkpt>
      <trkpt lat="43.91564" lon="5.43027">
        <ele>339.48</ele>
        <time>2015-06-15T13:15:38Z</time>
      </trkpt>
      <trkpt lat="43.91547" lon="5.42982">
        <ele>339.48</ele>
        <time>2015-06-15T13:15:50Z</time>
      </trkpt>
      <trkpt lat="43.91542" lon="5.42974">
        <ele>339</ele>
        <time>2015-06-15T13:15:52Z</time>
      </trkpt>
      <trkpt lat="43.91539" lon="5.42968">
        <ele>339</ele>
        <time>2015-06-15T13:15:53Z</time>
      </trkpt>
      <trkpt lat="43.91538" lon="5.42961">
        <ele>339</ele>
        <time>2015-06-15T13:15:54Z</time>
      </trkpt>
      <trkpt lat="43.91537" lon="5.42954">
        <ele>339</ele>
        <time>2015-06-15T13:15:55Z</time>
      </trkpt>
      <trkpt lat="43.91535" lon="5.42948">
        <ele>339</ele>
        <time>2015-06-15T13:15:56Z</time>
      </trkpt>
      <trkpt lat="43.91532" lon="5.42944">
        <ele>339</ele>
        <time>2015-06-15T13:15:57Z</time>
      </trkpt>
      <trkpt lat="43.91529" lon="5.4294">
        <ele>339</ele>
        <time>2015-06-15T13:15:58Z</time>
      </trkpt>
      <trkpt lat="43.91526" lon="5.42937">
        <ele>338.52</ele>
        <time>2015-06-15T13:15:59Z</time>
      </trkpt>
      <trkpt lat="43.9151" lon="5.42921">
        <ele>338.52</ele>
        <time>2015-06-15T13:16:03Z</time>
      </trkpt>
      <trkpt lat="43.91498" lon="5.42908">
        <ele>338.04</ele>
        <time>2015-06-15T13:16:07Z</time>
      </trkpt>
      <trkpt lat="43.91497" lon="5.42906">
        <ele>338.04</ele>
        <time>2015-06-15T13:16:08Z</time>
      </trkpt>
      <trkpt lat="43.91496" lon="5.42904">
        <ele>338.04</ele>
        <time>2015-06-15T13:16:09Z</time>
      </trkpt>
      <trkpt lat="43.91495" lon="5.42901">
        <ele>338.04</ele>
        <time>2015-06-15T13:16:10Z</time>
      </trkpt>
      <trkpt lat="43.91494" lon="5.42899">
        <ele>338.04</ele>
        <time>2015-06-15T13:16:11Z</time>
      </trkpt>
      <trkpt lat="43.91492" lon="5.42897">
        <ele>338.04</ele>
        <time>2015-06-15T13:16:12Z</time>
      </trkpt>
      <trkpt lat="43.91462" lon="5.42894">
        <ele>336.6</ele>
        <time>2015-06-15T13:16:22Z</time>
      </trkpt>
      <trkpt lat="43.91458" lon="5.42894">
        <ele>336.12</ele>
        <time>2015-06-15T13:16:23Z</time>
      </trkpt>
      <trkpt lat="43.91454" lon="5.4289">
        <ele>336.12</ele>
        <time>2015-06-15T13:16:24Z</time>
      </trkpt>
      <trkpt lat="43.91453" lon="5.42885">
        <ele>335.64</ele>
        <time>2015-06-15T13:16:25Z</time>
      </trkpt>
      <trkpt lat="43.91455" lon="5.42879">
        <ele>335.64</ele>
        <time>2015-06-15T13:16:26Z</time>
      </trkpt>
      <trkpt lat="43.91459" lon="5.42875">
        <ele>335.64</ele>
        <time>2015-06-15T13:16:27Z</time>
      </trkpt>
      <trkpt lat="43.91463" lon="5.42871">
        <ele>335.16</ele>
        <time>2015-06-15T13:16:28Z</time>
      </trkpt>
      <trkpt lat="43.91467" lon="5.42867">
        <ele>334.2</ele>
        <time>2015-06-15T13:16:29Z</time>
      </trkpt>
      <trkpt lat="43.91472" lon="5.42865">
        <ele>333.23</ele>
        <time>2015-06-15T13:16:30Z</time>
      </trkpt>
      <trkpt lat="43.91477" lon="5.42864">
        <ele>332.75</ele>
        <time>2015-06-15T13:16:31Z</time>
      </trkpt>
      <trkpt lat="43.91483" lon="5.42864">
        <ele>332.27</ele>
        <time>2015-06-15T13:16:32Z</time>
      </trkpt>
      <trkpt lat="43.91487" lon="5.4286">
        <ele>331.79</ele>
        <time>2015-06-15T13:16:33Z</time>
      </trkpt>
      <trkpt lat="43.91489" lon="5.42855">
        <ele>331.31</ele>
        <time>2015-06-15T13:16:34Z</time>
      </trkpt>
      <trkpt lat="43.91488" lon="5.42851">
        <ele>331.31</ele>
        <time>2015-06-15T13:16:35Z</time>
      </trkpt>
      <trkpt lat="43.91487" lon="5.42848">
        <ele>331.31</ele>
        <time>2015-06-15T13:16:36Z</time>
      </trkpt>
      <trkpt lat="43.91487" lon="5.42846">
        <ele>331.31</ele>
        <time>2015-06-15T13:16:37Z</time>
      </trkpt>
      <trkpt lat="43.91483" lon="5.42839">
        <ele>331.31</ele>
        <time>2015-06-15T13:16:40Z</time>
      </trkpt>
      <trkpt lat="43.91477" lon="5.42835">
        <ele>332.27</ele>
        <time>2015-06-15T13:16:43Z</time>
      </trkpt>
      <trkpt lat="43.91475" lon="5.42833">
        <ele>332.27</ele>
        <time>2015-06-15T13:16:44Z</time>
      </trkpt>
      <trkpt lat="43.91454" lon="5.42813">
        <ele>336.6</ele>
        <time>2015-06-15T13:16:56Z</time>
      </trkpt>
      <trkpt lat="43.91432" lon="5.42785">
        <ele>336.12</ele>
        <time>2015-06-15T13:17:04Z</time>
      </trkpt>
      <trkpt lat="43.91428" lon="5.42781">
        <ele>335.64</ele>
        <time>2015-06-15T13:17:05Z</time>
      </trkpt>
      <trkpt lat="43.9141" lon="5.42767">
        <ele>335.64</ele>
        <time>2015-06-15T13:17:09Z</time>
      </trkpt>
      <trkpt lat="43.91401" lon="5.42761">
        <ele>335.16</ele>
        <time>2015-06-15T13:17:11Z</time>
      </trkpt>
      <trkpt lat="43.91392" lon="5.42753">
        <ele>334.68</ele>
        <time>2015-06-15T13:17:13Z</time>
      </trkpt>
      <trkpt lat="43.91387" lon="5.4275">
        <ele>334.2</ele>
        <time>2015-06-15T13:17:14Z</time>
      </trkpt>
      <trkpt lat="43.91377" lon="5.42743">
        <ele>334.2</ele>
        <time>2015-06-15T13:17:16Z</time>
      </trkpt>
      <trkpt lat="43.91372" lon="5.42738">
        <ele>334.2</ele>
        <time>2015-06-15T13:17:17Z</time>
      </trkpt>
      <trkpt lat="43.91368" lon="5.42734">
        <ele>334.2</ele>
        <time>2015-06-15T13:17:18Z</time>
      </trkpt>
      <trkpt lat="43.91363" lon="5.42729">
        <ele>334.2</ele>
        <time>2015-06-15T13:17:19Z</time>
      </trkpt>
      <trkpt lat="43.91359" lon="5.42723">
        <ele>334.2</ele>
        <time>2015-06-15T13:17:20Z</time>
      </trkpt>
      <trkpt lat="43.91355" lon="5.42716">
        <ele>334.2</ele>
        <time>2015-06-15T13:17:21Z</time>
      </trkpt>
      <trkpt lat="43.91352" lon="5.42707">
        <ele>333.71</ele>
        <time>2015-06-15T13:17:22Z</time>
      </trkpt>
      <trkpt lat="43.91351" lon="5.42698">
        <ele>332.75</ele>
        <time>2015-06-15T13:17:23Z</time>
      </trkpt>
      <trkpt lat="43.91349" lon="5.42688">
        <ele>332.27</ele>
        <time>2015-06-15T13:17:24Z</time>
      </trkpt>
      <trkpt lat="43.91342" lon="5.42665">
        <ele>331.31</ele>
        <time>2015-06-15T13:17:27Z</time>
      </trkpt>
      <trkpt lat="43.91339" lon="5.42659">
        <ele>330.83</ele>
        <time>2015-06-15T13:17:28Z</time>
      </trkpt>
      <trkpt lat="43.91337" lon="5.42653">
        <ele>330.35</ele>
        <time>2015-06-15T13:17:29Z</time>
      </trkpt>
      <trkpt lat="43.91335" lon="5.42648">
        <ele>329.87</ele>
        <time>2015-06-15T13:17:30Z</time>
      </trkpt>
      <trkpt lat="43.91334" lon="5.42643">
        <ele>329.39</ele>
        <time>2015-06-15T13:17:31Z</time>
      </trkpt>
      <trkpt lat="43.91332" lon="5.4264">
        <ele>329.39</ele>
        <time>2015-06-15T13:17:32Z</time>
      </trkpt>
      <trkpt lat="43.91331" lon="5.42636">
        <ele>328.91</ele>
        <time>2015-06-15T13:17:33Z</time>
      </trkpt>
      <trkpt lat="43.9133" lon="5.42633">
        <ele>328.91</ele>
        <time>2015-06-15T13:17:34Z</time>
      </trkpt>
      <trkpt lat="43.91329" lon="5.4263">
        <ele>328.43</ele>
        <time>2015-06-15T13:17:35Z</time>
      </trkpt>
      <trkpt lat="43.91328" lon="5.42627">
        <ele>328.43</ele>
        <time>2015-06-15T13:17:36Z</time>
      </trkpt>
      <trkpt lat="43.91315" lon="5.42591">
        <ele>328.43</ele>
        <time>2015-06-15T13:17:48Z</time>
      </trkpt>
      <trkpt lat="43.91311" lon="5.42535">
        <ele>328.43</ele>
        <time>2015-06-15T13:18:02Z</time>
      </trkpt>
      <trkpt lat="43.91308" lon="5.42503">
        <ele>329.87</ele>
        <time>2015-06-15T13:18:13Z</time>
      </trkpt>
      <trkpt lat="43.91305" lon="5.42484">
        <ele>329.87</ele>
        <time>2015-06-15T13:18:23Z</time>
      </trkpt>
      <trkpt lat="43.91305" lon="5.42486">
        <ele>329.87</ele>
        <time>2015-06-15T13:18:24Z</time>
      </trkpt>
      <trkpt lat="43.91313" lon="5.42531">
        <ele>327.47</ele>
        <time>2015-06-15T13:18:37Z</time>
      </trkpt>
      <trkpt lat="43.91321" lon="5.42556">
        <ele>326.99</ele>
        <time>2015-06-15T13:18:45Z</time>
      </trkpt>
      <trkpt lat="43.91322" lon="5.4256">
        <ele>326.99</ele>
        <time>2015-06-15T13:18:46Z</time>
      </trkpt>
      <trkpt lat="43.91324" lon="5.42563">
        <ele>326.99</ele>
        <time>2015-06-15T13:18:47Z</time>
      </trkpt>
      <trkpt lat="43.91325" lon="5.42565">
        <ele>326.99</ele>
        <time>2015-06-15T13:18:48Z</time>
      </trkpt>
      <trkpt lat="43.91326" lon="5.42568">
        <ele>326.99</ele>
        <time>2015-06-15T13:18:49Z</time>
      </trkpt>
      <trkpt lat="43.91327" lon="5.42571">
        <ele>326.99</ele>
        <time>2015-06-15T13:18:50Z</time>
      </trkpt>
      <trkpt lat="43.91339" lon="5.42601">
        <ele>326.5</ele>
        <time>2015-06-15T13:18:59Z</time>
      </trkpt>
      <trkpt lat="43.9134" lon="5.42603">
        <ele>326.5</ele>
        <time>2015-06-15T13:19:00Z</time>
      </trkpt>
      <trkpt lat="43.91341" lon="5.42605">
        <ele>326.99</ele>
        <time>2015-06-15T13:19:01Z</time>
      </trkpt>
      <trkpt lat="43.91341" lon="5.42607">
        <ele>326.99</ele>
        <time>2015-06-15T13:19:02Z</time>
      </trkpt>
      <trkpt lat="43.91341" lon="5.4261">
        <ele>326.99</ele>
        <time>2015-06-15T13:19:03Z</time>
      </trkpt>
      <trkpt lat="43.9134" lon="5.42612">
        <ele>326.99</ele>
        <time>2015-06-15T13:19:04Z</time>
      </trkpt>
      <trkpt lat="43.9134" lon="5.42614">
        <ele>326.99</ele>
        <time>2015-06-15T13:19:05Z</time>
      </trkpt>
      <trkpt lat="43.9134" lon="5.42616">
        <ele>326.99</ele>
        <time>2015-06-15T13:19:06Z</time>
      </trkpt>
      <trkpt lat="43.9134" lon="5.42619">
        <ele>326.99</ele>
        <time>2015-06-15T13:19:07Z</time>
      </trkpt>
      <trkpt lat="43.9134" lon="5.42622">
        <ele>326.5</ele>
        <time>2015-06-15T13:19:08Z</time>
      </trkpt>
      <trkpt lat="43.9134" lon="5.42626">
        <ele>326.5</ele>
        <time>2015-06-15T13:19:09Z</time>
      </trkpt>
      <trkpt lat="43.9134" lon="5.42629">
        <ele>326.5</ele>
        <time>2015-06-15T13:19:10Z</time>
      </trkpt>
      <trkpt lat="43.91339" lon="5.42631">
        <ele>324.58</ele>
        <time>2015-06-15T13:19:21Z</time>
      </trkpt>
      <trkpt lat="43.91339" lon="5.4263">
        <ele>324.58</ele>
        <time>2015-06-15T13:19:32Z</time>
      </trkpt>
      <trkpt lat="43.91337" lon="5.42629">
        <ele>324.58</ele>
        <time>2015-06-15T13:19:33Z</time>
      </trkpt>
      <trkpt lat="43.91323" lon="5.42604">
        <ele>325.06</ele>
        <time>2015-06-15T13:19:46Z</time>
      </trkpt>
      <trkpt lat="43.91312" lon="5.42571">
        <ele>325.54</ele>
        <time>2015-06-15T13:19:59Z</time>
      </trkpt>
      <trkpt lat="43.91312" lon="5.42534">
        <ele>326.5</ele>
        <time>2015-06-15T13:20:12Z</time>
      </trkpt>
      <trkpt lat="43.91309" lon="5.42505">
        <ele>327.47</ele>
        <time>2015-06-15T13:20:23Z</time>
      </trkpt>
      <trkpt lat="43.91303" lon="5.42468">
        <ele>328.91</ele>
        <time>2015-06-15T13:20:34Z</time>
      </trkpt>
      <trkpt lat="43.91294" lon="5.42431">
        <ele>333.71</ele>
        <time>2015-06-15T13:20:45Z</time>
      </trkpt>
      <trkpt lat="43.91294" lon="5.42386">
        <ele>335.64</ele>
        <time>2015-06-15T13:20:57Z</time>
      </trkpt>
      <trkpt lat="43.91305" lon="5.42339">
        <ele>336.12</ele>
        <time>2015-06-15T13:21:09Z</time>
      </trkpt>
      <trkpt lat="43.9132" lon="5.42295">
        <ele>337.08</ele>
        <time>2015-06-15T13:21:21Z</time>
      </trkpt>
      <trkpt lat="43.9133" lon="5.42246">
        <ele>339.96</ele>
        <time>2015-06-15T13:21:35Z</time>
      </trkpt>
      <trkpt lat="43.91345" lon="5.42195">
        <ele>340.92</ele>
        <time>2015-06-15T13:21:50Z</time>
      </trkpt>
      <trkpt lat="43.91353" lon="5.42171">
        <ele>340.92</ele>
        <time>2015-06-15T13:22:04Z</time>
      </trkpt>
      <trkpt lat="43.91354" lon="5.42167">
        <ele>340.92</ele>
        <time>2015-06-15T13:22:30Z</time>
      </trkpt>
      <trkpt lat="43.91355" lon="5.42156">
        <ele>340.92</ele>
        <time>2015-06-15T13:22:35Z</time>
      </trkpt>
      <trkpt lat="43.91354" lon="5.42157">
        <ele>340.92</ele>
        <time>2015-06-15T13:22:36Z</time>
      </trkpt>
      <trkpt lat="43.91354" lon="5.42159">
        <ele>340.92</ele>
        <time>2015-06-15T13:22:37Z</time>
      </trkpt>
      <trkpt lat="43.91362" lon="5.4216">
        <ele>339.96</ele>
        <time>2015-06-15T13:22:44Z</time>
      </trkpt>
      <trkpt lat="43.91365" lon="5.42138">
        <ele>340.44</ele>
        <time>2015-06-15T13:22:50Z</time>
      </trkpt>
      <trkpt lat="43.91366" lon="5.42094">
        <ele>341.41</ele>
        <time>2015-06-15T13:23:00Z</time>
      </trkpt>
      <trkpt lat="43.91367" lon="5.42088">
        <ele>341.41</ele>
        <time>2015-06-15T13:23:01Z</time>
      </trkpt>
      <trkpt lat="43.91369" lon="5.42084">
        <ele>341.41</ele>
        <time>2015-06-15T13:23:02Z</time>
      </trkpt>
      <trkpt lat="43.91372" lon="5.42081">
        <ele>341.89</ele>
        <time>2015-06-15T13:23:03Z</time>
      </trkpt>
      <trkpt lat="43.91374" lon="5.42079">
        <ele>341.89</ele>
        <time>2015-06-15T13:23:04Z</time>
      </trkpt>
      <trkpt lat="43.91376" lon="5.42078">
        <ele>341.89</ele>
        <time>2015-06-15T13:23:05Z</time>
      </trkpt>
      <trkpt lat="43.91378" lon="5.42078">
        <ele>342.37</ele>
        <time>2015-06-15T13:23:06Z</time>
      </trkpt>
      <trkpt lat="43.9138" lon="5.42079">
        <ele>342.37</ele>
        <time>2015-06-15T13:23:07Z</time>
      </trkpt>
      <trkpt lat="43.91381" lon="5.42079">
        <ele>342.37</ele>
        <time>2015-06-15T13:23:08Z</time>
      </trkpt>
      <trkpt lat="43.91383" lon="5.42079">
        <ele>342.85</ele>
        <time>2015-06-15T13:23:09Z</time>
      </trkpt>
      <trkpt lat="43.91384" lon="5.42079">
        <ele>342.85</ele>
        <time>2015-06-15T13:23:10Z</time>
      </trkpt>
      <trkpt lat="43.91385" lon="5.42078">
        <ele>342.85</ele>
        <time>2015-06-15T13:23:20Z</time>
      </trkpt>
      <trkpt lat="43.91381" lon="5.42078">
        <ele>342.85</ele>
        <time>2015-06-15T13:23:23Z</time>
      </trkpt>
      <trkpt lat="43.91379" lon="5.42079">
        <ele>342.85</ele>
        <time>2015-06-15T13:23:24Z</time>
      </trkpt>
      <trkpt lat="43.9137" lon="5.42081">
        <ele>341.89</ele>
        <time>2015-06-15T13:23:28Z</time>
      </trkpt>
      <trkpt lat="43.91368" lon="5.42079">
        <ele>341.41</ele>
        <time>2015-06-15T13:23:29Z</time>
      </trkpt>
      <trkpt lat="43.91366" lon="5.42078">
        <ele>340.92</ele>
        <time>2015-06-15T13:23:30Z</time>
      </trkpt>
      <trkpt lat="43.91365" lon="5.42077">
        <ele>340.44</ele>
        <time>2015-06-15T13:23:31Z</time>
      </trkpt>
      <trkpt lat="43.91364" lon="5.42075">
        <ele>340.44</ele>
        <time>2015-06-15T13:23:32Z</time>
      </trkpt>
      <trkpt lat="43.91362" lon="5.42074">
        <ele>339.96</ele>
        <time>2015-06-15T13:23:33Z</time>
      </trkpt>
      <trkpt lat="43.91356" lon="5.42073">
        <ele>337.08</ele>
        <time>2015-06-15T13:23:41Z</time>
      </trkpt>
      <trkpt lat="43.91355" lon="5.42071">
        <ele>337.08</ele>
        <time>2015-06-15T13:23:56Z</time>
      </trkpt>
      <trkpt lat="43.91355" lon="5.42069">
        <ele>336.6</ele>
        <time>2015-06-15T13:23:57Z</time>
      </trkpt>
      <trkpt lat="43.91355" lon="5.42067">
        <ele>336.6</ele>
        <time>2015-06-15T13:23:58Z</time>
      </trkpt>
      <trkpt lat="43.91356" lon="5.42065">
        <ele>336.6</ele>
        <time>2015-06-15T13:23:59Z</time>
      </trkpt>
      <trkpt lat="43.91357" lon="5.42061">
        <ele>336.6</ele>
        <time>2015-06-15T13:24:00Z</time>
      </trkpt>
      <trkpt lat="43.91359" lon="5.42057">
        <ele>336.12</ele>
        <time>2015-06-15T13:24:01Z</time>
      </trkpt>
      <trkpt lat="43.91366" lon="5.42044">
        <ele>334.68</ele>
        <time>2015-06-15T13:24:04Z</time>
      </trkpt>
      <trkpt lat="43.91369" lon="5.4204">
        <ele>334.2</ele>
        <time>2015-06-15T13:24:05Z</time>
      </trkpt>
      <trkpt lat="43.91373" lon="5.42036">
        <ele>333.71</ele>
        <time>2015-06-15T13:24:06Z</time>
      </trkpt>
      <trkpt lat="43.91381" lon="5.42031">
        <ele>332.75</ele>
        <time>2015-06-15T13:24:08Z</time>
      </trkpt>
      <trkpt lat="43.91431" lon="5.42005">
        <ele>328.91</ele>
        <time>2015-06-15T13:24:18Z</time>
      </trkpt>
      <trkpt lat="43.91437" lon="5.41998">
        <ele>328.43</ele>
        <time>2015-06-15T13:24:19Z</time>
      </trkpt>
      <trkpt lat="43.91442" lon="5.4199">
        <ele>327.95</ele>
        <time>2015-06-15T13:24:20Z</time>
      </trkpt>
      <trkpt lat="43.91447" lon="5.41982">
        <ele>327.95</ele>
        <time>2015-06-15T13:24:21Z</time>
      </trkpt>
      <trkpt lat="43.9145" lon="5.41973">
        <ele>327.47</ele>
        <time>2015-06-15T13:24:22Z</time>
      </trkpt>
      <trkpt lat="43.91453" lon="5.41963">
        <ele>326.99</ele>
        <time>2015-06-15T13:24:23Z</time>
      </trkpt>
      <trkpt lat="43.91487" lon="5.41841">
        <ele>321.7</ele>
        <time>2015-06-15T13:24:36Z</time>
      </trkpt>
      <trkpt lat="43.91503" lon="5.41788">
        <ele>319.78</ele>
        <time>2015-06-15T13:24:42Z</time>
      </trkpt>
      <trkpt lat="43.91506" lon="5.41782">
        <ele>319.78</ele>
        <time>2015-06-15T13:24:43Z</time>
      </trkpt>
      <trkpt lat="43.91508" lon="5.41775">
        <ele>318.81</ele>
        <time>2015-06-15T13:24:50Z</time>
      </trkpt>
      <trkpt lat="43.91511" lon="5.41773">
        <ele>318.33</ele>
        <time>2015-06-15T13:25:00Z</time>
      </trkpt>
      <trkpt lat="43.91513" lon="5.41772">
        <ele>318.33</ele>
        <time>2015-06-15T13:25:01Z</time>
      </trkpt>
      <trkpt lat="43.91515" lon="5.41772">
        <ele>318.81</ele>
        <time>2015-06-15T13:25:02Z</time>
      </trkpt>
      <trkpt lat="43.91516" lon="5.41771">
        <ele>318.81</ele>
        <time>2015-06-15T13:25:03Z</time>
      </trkpt>
      <trkpt lat="43.91518" lon="5.4177">
        <ele>318.81</ele>
        <time>2015-06-15T13:25:04Z</time>
      </trkpt>
      <trkpt lat="43.91525" lon="5.41769">
        <ele>320.74</ele>
        <time>2015-06-15T13:25:10Z</time>
      </trkpt>
      <trkpt lat="43.91545" lon="5.41764">
        <ele>325.54</ele>
        <time>2015-06-15T13:25:23Z</time>
      </trkpt>
      <trkpt lat="43.9155" lon="5.41744">
        <ele>331.31</ele>
        <time>2015-06-15T13:25:34Z</time>
      </trkpt>
      <trkpt lat="43.91548" lon="5.41738">
        <ele>332.27</ele>
        <time>2015-06-15T13:25:37Z</time>
      </trkpt>
      <trkpt lat="43.91556" lon="5.41726">
        <ele>335.64</ele>
        <time>2015-06-15T13:25:44Z</time>
      </trkpt>
      <trkpt lat="43.91579" lon="5.41727">
        <ele>338.52</ele>
        <time>2015-06-15T13:25:55Z</time>
      </trkpt>
      <trkpt lat="43.91584" lon="5.41734">
        <ele>339.96</ele>
        <time>2015-06-15T13:26:00Z</time>
      </trkpt>
      <trkpt lat="43.91611" lon="5.41734">
        <ele>344.29</ele>
        <time>2015-06-15T13:26:14Z</time>
      </trkpt>
      <trkpt lat="43.91634" lon="5.41722">
        <ele>343.33</ele>
        <time>2015-06-15T13:26:25Z</time>
      </trkpt>
      <trkpt lat="43.91659" lon="5.4169">
        <ele>340.44</ele>
        <time>2015-06-15T13:26:37Z</time>
      </trkpt>
      <trkpt lat="43.91674" lon="5.41658">
        <ele>336.6</ele>
        <time>2015-06-15T13:26:44Z</time>
      </trkpt>
      <trkpt lat="43.91685" lon="5.41662">
        <ele>335.16</ele>
        <time>2015-06-15T13:26:52Z</time>
      </trkpt>
      <trkpt lat="43.91688" lon="5.4167">
        <ele>334.68</ele>
        <time>2015-06-15T13:27:07Z</time>
      </trkpt>
      <trkpt lat="43.91687" lon="5.41671">
        <ele>333.71</ele>
        <time>2015-06-15T13:27:31Z</time>
      </trkpt>
      <trkpt lat="43.91692" lon="5.41677">
        <ele>335.16</ele>
        <time>2015-06-15T13:27:36Z</time>
      </trkpt>
      <trkpt lat="43.91696" lon="5.41679">
        <ele>335.64</ele>
        <time>2015-06-15T13:27:38Z</time>
      </trkpt>
      <trkpt lat="43.91724" lon="5.41695">
        <ele>338.52</ele>
        <time>2015-06-15T13:27:49Z</time>
      </trkpt>
      <trkpt lat="43.91743" lon="5.4171">
        <ele>344.29</ele>
        <time>2015-06-15T13:28:02Z</time>
      </trkpt>
      <trkpt lat="43.91743" lon="5.41712">
        <ele>346.21</ele>
        <time>2015-06-15T13:28:09Z</time>
      </trkpt>
      <trkpt lat="43.91747" lon="5.41727">
        <ele>346.21</ele>
        <time>2015-06-15T13:28:21Z</time>
      </trkpt>
      <trkpt lat="43.91748" lon="5.41737">
        <ele>345.73</ele>
        <time>2015-06-15T13:28:27Z</time>
      </trkpt>
      <trkpt lat="43.91745" lon="5.41757">
        <ele>350.54</ele>
        <time>2015-06-15T13:28:40Z</time>
      </trkpt>
      <trkpt lat="43.91745" lon="5.41781">
        <ele>357.27</ele>
        <time>2015-06-15T13:28:53Z</time>
      </trkpt>
      <trkpt lat="43.91745" lon="5.41783">
        <ele>357.75</ele>
        <time>2015-06-15T13:28:54Z</time>
      </trkpt>
      <trkpt lat="43.91746" lon="5.41801">
        <ele>360.15</ele>
        <time>2015-06-15T13:29:02Z</time>
      </trkpt>
      <trkpt lat="43.91747" lon="5.41806">
        <ele>360.63</ele>
        <time>2015-06-15T13:29:05Z</time>
      </trkpt>
      <trkpt lat="43.91755" lon="5.41829">
        <ele>360.63</ele>
        <time>2015-06-15T13:29:18Z</time>
      </trkpt>
      <trkpt lat="43.91759" lon="5.41835">
        <ele>361.59</ele>
        <time>2015-06-15T13:29:24Z</time>
      </trkpt>
      <trkpt lat="43.91772" lon="5.41854">
        <ele>365.92</ele>
        <time>2015-06-15T13:29:38Z</time>
      </trkpt>
      <trkpt lat="43.91783" lon="5.41863">
        <ele>366.4</ele>
        <time>2015-06-15T13:29:49Z</time>
      </trkpt>
      <trkpt lat="43.91796" lon="5.41874">
        <ele>369.28</ele>
        <time>2015-06-15T13:30:02Z</time>
      </trkpt>
      <trkpt lat="43.91809" lon="5.41884">
        <ele>372.17</ele>
        <time>2015-06-15T13:30:15Z</time>
      </trkpt>
      <trkpt lat="43.91812" lon="5.4189">
        <ele>374.09</ele>
        <time>2015-06-15T13:30:24Z</time>
      </trkpt>
      <trkpt lat="43.9183" lon="5.41902">
        <ele>378.42</ele>
        <time>2015-06-15T13:30:35Z</time>
      </trkpt>
      <trkpt lat="43.91838" lon="5.4191">
        <ele>379.86</ele>
        <time>2015-06-15T13:30:39Z</time>
      </trkpt>
      <trkpt lat="43.91848" lon="5.41925">
        <ele>382.26</ele>
        <time>2015-06-15T13:30:47Z</time>
      </trkpt>
      <trkpt lat="43.91859" lon="5.41949">
        <ele>384.66</ele>
        <time>2015-06-15T13:30:57Z</time>
      </trkpt>
      <trkpt lat="43.9186" lon="5.41956">
        <ele>385.15</ele>
        <time>2015-06-15T13:31:01Z</time>
      </trkpt>
      <trkpt lat="43.9186" lon="5.41967">
        <ele>387.55</ele>
        <time>2015-06-15T13:31:08Z</time>
      </trkpt>
      <trkpt lat="43.91865" lon="5.4199">
        <ele>389.47</ele>
        <time>2015-06-15T13:31:15Z</time>
      </trkpt>
      <trkpt lat="43.91866" lon="5.42026">
        <ele>386.59</ele>
        <time>2015-06-15T13:31:26Z</time>
      </trkpt>
      <trkpt lat="43.91868" lon="5.42033">
        <ele>387.07</ele>
        <time>2015-06-15T13:31:29Z</time>
      </trkpt>
      <trkpt lat="43.91871" lon="5.42053">
        <ele>386.59</ele>
        <time>2015-06-15T13:31:35Z</time>
      </trkpt>
      <trkpt lat="43.91877" lon="5.421">
        <ele>384.66</ele>
        <time>2015-06-15T13:31:46Z</time>
      </trkpt>
      <trkpt lat="43.9188" lon="5.42117">
        <ele>384.18</ele>
        <time>2015-06-15T13:31:50Z</time>
      </trkpt>
      <trkpt lat="43.9188" lon="5.42125">
        <ele>384.66</ele>
        <time>2015-06-15T13:31:53Z</time>
      </trkpt>
      <trkpt lat="43.91882" lon="5.42137">
        <ele>384.66</ele>
        <time>2015-06-15T13:31:57Z</time>
      </trkpt>
      <trkpt lat="43.91889" lon="5.42176">
        <ele>385.15</ele>
        <time>2015-06-15T13:32:06Z</time>
      </trkpt>
      <trkpt lat="43.9189" lon="5.42184">
        <ele>384.66</ele>
        <time>2015-06-15T13:32:07Z</time>
      </trkpt>
      <trkpt lat="43.91891" lon="5.42191">
        <ele>384.66</ele>
        <time>2015-06-15T13:32:08Z</time>
      </trkpt>
      <trkpt lat="43.91893" lon="5.42197">
        <ele>384.66</ele>
        <time>2015-06-15T13:32:09Z</time>
      </trkpt>
      <trkpt lat="43.91894" lon="5.42203">
        <ele>384.18</ele>
        <time>2015-06-15T13:32:10Z</time>
      </trkpt>
      <trkpt lat="43.91894" lon="5.42208">
        <ele>384.18</ele>
        <time>2015-06-15T13:32:11Z</time>
      </trkpt>
      <trkpt lat="43.91894" lon="5.42212">
        <ele>384.18</ele>
        <time>2015-06-15T13:32:12Z</time>
      </trkpt>
      <trkpt lat="43.91894" lon="5.42215">
        <ele>383.7</ele>
        <time>2015-06-15T13:32:13Z</time>
      </trkpt>
      <trkpt lat="43.91895" lon="5.42218">
        <ele>383.7</ele>
        <time>2015-06-15T13:32:14Z</time>
      </trkpt>
      <trkpt lat="43.91897" lon="5.42245">
        <ele>382.74</ele>
        <time>2015-06-15T13:32:19Z</time>
      </trkpt>
      <trkpt lat="43.91897" lon="5.42252">
        <ele>382.26</ele>
        <time>2015-06-15T13:32:20Z</time>
      </trkpt>
      <trkpt lat="43.91898" lon="5.42259">
        <ele>381.78</ele>
        <time>2015-06-15T13:32:21Z</time>
      </trkpt>
      <trkpt lat="43.91899" lon="5.4228">
        <ele>380.34</ele>
        <time>2015-06-15T13:32:25Z</time>
      </trkpt>
      <trkpt lat="43.91908" lon="5.423">
        <ele>378.42</ele>
        <time>2015-06-15T13:32:30Z</time>
      </trkpt>
      <trkpt lat="43.9191" lon="5.42306">
        <ele>377.94</ele>
        <time>2015-06-15T13:32:31Z</time>
      </trkpt>
      <trkpt lat="43.91912" lon="5.42309">
        <ele>377.94</ele>
        <time>2015-06-15T13:32:32Z</time>
      </trkpt>
      <trkpt lat="43.91914" lon="5.42312">
        <ele>377.94</ele>
        <time>2015-06-15T13:32:33Z</time>
      </trkpt>
      <trkpt lat="43.91915" lon="5.42315">
        <ele>377.94</ele>
        <time>2015-06-15T13:32:34Z</time>
      </trkpt>
      <trkpt lat="43.91915" lon="5.42319">
        <ele>378.9</ele>
        <time>2015-06-15T13:32:49Z</time>
      </trkpt>
      <trkpt lat="43.91915" lon="5.42319">
        <ele>378.9</ele>
        <time>2015-06-15T13:32:50Z</time>
      </trkpt>
      <trkpt lat="43.91915" lon="5.42318">
        <ele>378.9</ele>
        <time>2015-06-15T13:32:51Z</time>
      </trkpt>
      <trkpt lat="43.91915" lon="5.42316">
        <ele>378.9</ele>
        <time>2015-06-15T13:32:52Z</time>
      </trkpt>
      <trkpt lat="43.91914" lon="5.42315">
        <ele>378.9</ele>
        <time>2015-06-15T13:32:53Z</time>
      </trkpt>
      <trkpt lat="43.91912" lon="5.42313">
        <ele>379.38</ele>
        <time>2015-06-15T13:32:54Z</time>
      </trkpt>
      <trkpt lat="43.91911" lon="5.42311">
        <ele>379.86</ele>
        <time>2015-06-15T13:32:55Z</time>
      </trkpt>
      <trkpt lat="43.9191" lon="5.42309">
        <ele>379.86</ele>
        <time>2015-06-15T13:32:56Z</time>
      </trkpt>
      <trkpt lat="43.91909" lon="5.42307">
        <ele>379.86</ele>
        <time>2015-06-15T13:32:57Z</time>
      </trkpt>
      <trkpt lat="43.91908" lon="5.42304">
        <ele>379.86</ele>
        <time>2015-06-15T13:32:58Z</time>
      </trkpt>
      <trkpt lat="43.91907" lon="5.423">
        <ele>380.34</ele>
        <time>2015-06-15T13:32:59Z</time>
      </trkpt>
      <trkpt lat="43.91905" lon="5.42298">
        <ele>380.34</ele>
        <time>2015-06-15T13:33:00Z</time>
      </trkpt>
      <trkpt lat="43.91904" lon="5.42295">
        <ele>380.82</ele>
        <time>2015-06-15T13:33:01Z</time>
      </trkpt>
      <trkpt lat="43.91902" lon="5.42292">
        <ele>380.82</ele>
        <time>2015-06-15T13:33:02Z</time>
      </trkpt>
      <trkpt lat="43.91898" lon="5.42286">
        <ele>381.3</ele>
        <time>2015-06-15T13:33:05Z</time>
      </trkpt>
      <trkpt lat="43.91897" lon="5.42284">
        <ele>381.3</ele>
        <time>2015-06-15T13:33:06Z</time>
      </trkpt>
      <trkpt lat="43.91896" lon="5.42282">
        <ele>383.22</ele>
        <time>2015-06-15T13:33:15Z</time>
      </trkpt>
      <trkpt lat="43.91895" lon="5.42281">
        <ele>383.7</ele>
        <time>2015-06-15T13:33:16Z</time>
      </trkpt>
      <trkpt lat="43.91894" lon="5.4228">
        <ele>383.7</ele>
        <time>2015-06-15T13:33:17Z</time>
      </trkpt>
      <trkpt lat="43.91893" lon="5.42278">
        <ele>383.7</ele>
        <time>2015-06-15T13:33:18Z</time>
      </trkpt>
      <trkpt lat="43.91892" lon="5.42276">
        <ele>383.7</ele>
        <time>2015-06-15T13:33:19Z</time>
      </trkpt>
      <trkpt lat="43.91892" lon="5.42274">
        <ele>384.18</ele>
        <time>2015-06-15T13:33:20Z</time>
      </trkpt>
      <trkpt lat="43.91891" lon="5.42271">
        <ele>385.15</ele>
        <time>2015-06-15T13:33:21Z</time>
      </trkpt>
      <trkpt lat="43.9189" lon="5.42268">
        <ele>385.63</ele>
        <time>2015-06-15T13:33:22Z</time>
      </trkpt>
      <trkpt lat="43.91888" lon="5.42266">
        <ele>386.11</ele>
        <time>2015-06-15T13:33:23Z</time>
      </trkpt>
      <trkpt lat="43.91886" lon="5.42264">
        <ele>386.59</ele>
        <time>2015-06-15T13:33:24Z</time>
      </trkpt>
      <trkpt lat="43.91884" lon="5.42264">
        <ele>387.55</ele>
        <time>2015-06-15T13:33:25Z</time>
      </trkpt>
      <trkpt lat="43.91879" lon="5.42264">
        <ele>388.51</ele>
        <time>2015-06-15T13:33:27Z</time>
      </trkpt>
      <trkpt lat="43.91863" lon="5.42255">
        <ele>391.39</ele>
        <time>2015-06-15T13:33:34Z</time>
      </trkpt>
      <trkpt lat="43.91861" lon="5.42253">
        <ele>391.39</ele>
        <time>2015-06-15T13:33:36Z</time>
      </trkpt>
      <trkpt lat="43.9186" lon="5.42252">
        <ele>391.39</ele>
        <time>2015-06-15T13:33:37Z</time>
      </trkpt>
      <trkpt lat="43.91858" lon="5.42252">
        <ele>391.39</ele>
        <time>2015-06-15T13:33:38Z</time>
      </trkpt>
      <trkpt lat="43.91848" lon="5.4225">
        <ele>390.91</ele>
        <time>2015-06-15T13:33:42Z</time>
      </trkpt>
      <trkpt lat="43.91847" lon="5.42248">
        <ele>391.39</ele>
        <time>2015-06-15T13:33:43Z</time>
      </trkpt>
      <trkpt lat="43.91843" lon="5.42241">
        <ele>392.36</ele>
        <time>2015-06-15T13:33:54Z</time>
      </trkpt>
      <trkpt lat="43.91842" lon="5.42239">
        <ele>390.91</ele>
        <time>2015-06-15T13:34:23Z</time>
      </trkpt>
      <trkpt lat="43.91841" lon="5.42238">
        <ele>390.43</ele>
        <time>2015-06-15T13:34:25Z</time>
      </trkpt>
      <trkpt lat="43.91839" lon="5.42238">
        <ele>390.91</ele>
        <time>2015-06-15T13:34:26Z</time>
      </trkpt>
      <trkpt lat="43.91832" lon="5.42244">
        <ele>390.91</ele>
        <time>2015-06-15T13:34:32Z</time>
      </trkpt>
      <trkpt lat="43.91831" lon="5.42244">
        <ele>389.95</ele>
        <time>2015-06-15T13:34:45Z</time>
      </trkpt>
      <trkpt lat="43.91832" lon="5.42242">
        <ele>389.95</ele>
        <time>2015-06-15T13:35:15Z</time>
      </trkpt>
      <trkpt lat="43.91833" lon="5.42241">
        <ele>388.99</ele>
        <time>2015-06-15T13:35:48Z</time>
      </trkpt>
      <trkpt lat="43.91833" lon="5.4224">
        <ele>388.51</ele>
        <time>2015-06-15T13:35:53Z</time>
      </trkpt>
      <trkpt lat="43.91849" lon="5.42241">
        <ele>388.99</ele>
        <time>2015-06-15T13:36:03Z</time>
      </trkpt>
      <trkpt lat="43.91856" lon="5.42242">
        <ele>388.99</ele>
        <time>2015-06-15T13:36:05Z</time>
      </trkpt>
      <trkpt lat="43.9187" lon="5.4225">
        <ele>389.47</ele>
        <time>2015-06-15T13:36:09Z</time>
      </trkpt>
      <trkpt lat="43.91874" lon="5.42252">
        <ele>389.47</ele>
        <time>2015-06-15T13:36:10Z</time>
      </trkpt>
      <trkpt lat="43.91883" lon="5.42257">
        <ele>389.47</ele>
        <time>2015-06-15T13:36:13Z</time>
      </trkpt>
      <trkpt lat="43.91885" lon="5.42261">
        <ele>388.99</ele>
        <time>2015-06-15T13:36:14Z</time>
      </trkpt>
      <trkpt lat="43.91887" lon="5.42266">
        <ele>388.51</ele>
        <time>2015-06-15T13:36:15Z</time>
      </trkpt>
      <trkpt lat="43.91888" lon="5.42271">
        <ele>388.03</ele>
        <time>2015-06-15T13:36:16Z</time>
      </trkpt>
      <trkpt lat="43.91891" lon="5.42275">
        <ele>387.55</ele>
        <time>2015-06-15T13:36:17Z</time>
      </trkpt>
      <trkpt lat="43.91895" lon="5.4228">
        <ele>387.07</ele>
        <time>2015-06-15T13:36:18Z</time>
      </trkpt>
      <trkpt lat="43.91898" lon="5.42285">
        <ele>386.59</ele>
        <time>2015-06-15T13:36:19Z</time>
      </trkpt>
      <trkpt lat="43.919" lon="5.42291">
        <ele>386.11</ele>
        <time>2015-06-15T13:36:20Z</time>
      </trkpt>
      <trkpt lat="43.91903" lon="5.42295">
        <ele>385.63</ele>
        <time>2015-06-15T13:36:21Z</time>
      </trkpt>
      <trkpt lat="43.91905" lon="5.42301">
        <ele>385.15</ele>
        <time>2015-06-15T13:36:22Z</time>
      </trkpt>
      <trkpt lat="43.91907" lon="5.42306">
        <ele>384.66</ele>
        <time>2015-06-15T13:36:23Z</time>
      </trkpt>
      <trkpt lat="43.9191" lon="5.4231">
        <ele>384.66</ele>
        <time>2015-06-15T13:36:24Z</time>
      </trkpt>
      <trkpt lat="43.91913" lon="5.42313">
        <ele>384.18</ele>
        <time>2015-06-15T13:36:25Z</time>
      </trkpt>
      <trkpt lat="43.91914" lon="5.42318">
        <ele>383.7</ele>
        <time>2015-06-15T13:36:26Z</time>
      </trkpt>
      <trkpt lat="43.91915" lon="5.42323">
        <ele>383.7</ele>
        <time>2015-06-15T13:36:27Z</time>
      </trkpt>
      <trkpt lat="43.91916" lon="5.42328">
        <ele>383.22</ele>
        <time>2015-06-15T13:36:28Z</time>
      </trkpt>
      <trkpt lat="43.91918" lon="5.42338">
        <ele>383.22</ele>
        <time>2015-06-15T13:36:30Z</time>
      </trkpt>
      <trkpt lat="43.9192" lon="5.42342">
        <ele>383.22</ele>
        <time>2015-06-15T13:36:31Z</time>
      </trkpt>
      <trkpt lat="43.91922" lon="5.42347">
        <ele>383.22</ele>
        <time>2015-06-15T13:36:32Z</time>
      </trkpt>
      <trkpt lat="43.91923" lon="5.42352">
        <ele>382.74</ele>
        <time>2015-06-15T13:36:33Z</time>
      </trkpt>
      <trkpt lat="43.91923" lon="5.42358">
        <ele>382.26</ele>
        <time>2015-06-15T13:36:34Z</time>
      </trkpt>
      <trkpt lat="43.91923" lon="5.42363">
        <ele>381.78</ele>
        <time>2015-06-15T13:36:35Z</time>
      </trkpt>
      <trkpt lat="43.91922" lon="5.42369">
        <ele>380.82</ele>
        <time>2015-06-15T13:36:36Z</time>
      </trkpt>
      <trkpt lat="43.9192" lon="5.42374">
        <ele>379.86</ele>
        <time>2015-06-15T13:36:37Z</time>
      </trkpt>
      <trkpt lat="43.91913" lon="5.42392">
        <ele>377.94</ele>
        <time>2015-06-15T13:36:40Z</time>
      </trkpt>
      <trkpt lat="43.9191" lon="5.42398">
        <ele>376.97</ele>
        <time>2015-06-15T13:36:41Z</time>
      </trkpt>
      <trkpt lat="43.91906" lon="5.42405">
        <ele>376.49</ele>
        <time>2015-06-15T13:36:42Z</time>
      </trkpt>
      <trkpt lat="43.91895" lon="5.42427">
        <ele>374.09</ele>
        <time>2015-06-15T13:36:45Z</time>
      </trkpt>
      <trkpt lat="43.91892" lon="5.42435">
        <ele>373.61</ele>
        <time>2015-06-15T13:36:46Z</time>
      </trkpt>
      <trkpt lat="43.91884" lon="5.42464">
        <ele>370.73</ele>
        <time>2015-06-15T13:36:50Z</time>
      </trkpt>
      <trkpt lat="43.9188" lon="5.4247">
        <ele>370.24</ele>
        <time>2015-06-15T13:36:51Z</time>
      </trkpt>
      <trkpt lat="43.91869" lon="5.4248">
        <ele>368.8</ele>
        <time>2015-06-15T13:36:53Z</time>
      </trkpt>
      <trkpt lat="43.91863" lon="5.42484">
        <ele>368.32</ele>
        <time>2015-06-15T13:36:54Z</time>
      </trkpt>
      <trkpt lat="43.91854" lon="5.42496">
        <ele>366.88</ele>
        <time>2015-06-15T13:36:56Z</time>
      </trkpt>
      <trkpt lat="43.91851" lon="5.42501">
        <ele>366.4</ele>
        <time>2015-06-15T13:36:57Z</time>
      </trkpt>
      <trkpt lat="43.9185" lon="5.42505">
        <ele>365.44</ele>
        <time>2015-06-15T13:36:59Z</time>
      </trkpt>
      <trkpt lat="43.91852" lon="5.42505">
        <ele>365.44</ele>
        <time>2015-06-15T13:37:00Z</time>
      </trkpt>
      <trkpt lat="43.91858" lon="5.42508">
        <ele>366.4</ele>
        <time>2015-06-15T13:37:13Z</time>
      </trkpt>
      <trkpt lat="43.91858" lon="5.4251">
        <ele>365.92</ele>
        <time>2015-06-15T13:37:16Z</time>
      </trkpt>
      <trkpt lat="43.91858" lon="5.42512">
        <ele>365.92</ele>
        <time>2015-06-15T13:37:17Z</time>
      </trkpt>
      <trkpt lat="43.91858" lon="5.42515">
        <ele>365.92</ele>
        <time>2015-06-15T13:37:18Z</time>
      </trkpt>
      <trkpt lat="43.91862" lon="5.42522">
        <ele>364.96</ele>
        <time>2015-06-15T13:37:24Z</time>
      </trkpt>
      <trkpt lat="43.91862" lon="5.42525">
        <ele>364.96</ele>
        <time>2015-06-15T13:37:26Z</time>
      </trkpt>
      <trkpt lat="43.91871" lon="5.42536">
        <ele>364.96</ele>
        <time>2015-06-15T13:37:32Z</time>
      </trkpt>
      <trkpt lat="43.91878" lon="5.42548">
        <ele>364.96</ele>
        <time>2015-06-15T13:37:37Z</time>
      </trkpt>
      <trkpt lat="43.91882" lon="5.42557">
        <ele>366.4</ele>
        <time>2015-06-15T13:37:42Z</time>
      </trkpt>
      <trkpt lat="43.91894" lon="5.42588">
        <ele>371.21</ele>
        <time>2015-06-15T13:37:53Z</time>
      </trkpt>
      <trkpt lat="43.91899" lon="5.42599">
        <ele>371.69</ele>
        <time>2015-06-15T13:37:57Z</time>
      </trkpt>
      <trkpt lat="43.91909" lon="5.42624">
        <ele>371.69</ele>
        <time>2015-06-15T13:38:05Z</time>
      </trkpt>
      <trkpt lat="43.91919" lon="5.42661">
        <ele>378.42</ele>
        <time>2015-06-15T13:38:15Z</time>
      </trkpt>
      <trkpt lat="43.91938" lon="5.42708">
        <ele>384.18</ele>
        <time>2015-06-15T13:38:29Z</time>
      </trkpt>
      <trkpt lat="43.91947" lon="5.42747">
        <ele>384.18</ele>
        <time>2015-06-15T13:38:39Z</time>
      </trkpt>
      <trkpt lat="43.91947" lon="5.42763">
        <ele>383.7</ele>
        <time>2015-06-15T13:38:43Z</time>
      </trkpt>
      <trkpt lat="43.91936" lon="5.42811">
        <ele>384.18</ele>
        <time>2015-06-15T13:38:54Z</time>
      </trkpt>
      <trkpt lat="43.91924" lon="5.42855">
        <ele>386.59</ele>
        <time>2015-06-15T13:39:03Z</time>
      </trkpt>
      <trkpt lat="43.91925" lon="5.42859">
        <ele>386.59</ele>
        <time>2015-06-15T13:39:04Z</time>
      </trkpt>
      <trkpt lat="43.91927" lon="5.42863">
        <ele>387.07</ele>
        <time>2015-06-15T13:39:05Z</time>
      </trkpt>
      <trkpt lat="43.91929" lon="5.42867">
        <ele>387.07</ele>
        <time>2015-06-15T13:39:06Z</time>
      </trkpt>
      <trkpt lat="43.9193" lon="5.42871">
        <ele>387.55</ele>
        <time>2015-06-15T13:39:07Z</time>
      </trkpt>
      <trkpt lat="43.91931" lon="5.42875">
        <ele>388.03</ele>
        <time>2015-06-15T13:39:08Z</time>
      </trkpt>
      <trkpt lat="43.91939" lon="5.42913">
        <ele>391.39</ele>
        <time>2015-06-15T13:39:18Z</time>
      </trkpt>
      <trkpt lat="43.91941" lon="5.42915">
        <ele>391.87</ele>
        <time>2015-06-15T13:39:19Z</time>
      </trkpt>
      <trkpt lat="43.91946" lon="5.42917">
        <ele>391.87</ele>
        <time>2015-06-15T13:39:22Z</time>
      </trkpt>
      <trkpt lat="43.91948" lon="5.42919">
        <ele>392.36</ele>
        <time>2015-06-15T13:39:23Z</time>
      </trkpt>
      <trkpt lat="43.9195" lon="5.4292">
        <ele>392.36</ele>
        <time>2015-06-15T13:39:24Z</time>
      </trkpt>
      <trkpt lat="43.91952" lon="5.42922">
        <ele>392.84</ele>
        <time>2015-06-15T13:39:25Z</time>
      </trkpt>
      <trkpt lat="43.91954" lon="5.42924">
        <ele>393.32</ele>
        <time>2015-06-15T13:39:26Z</time>
      </trkpt>
      <trkpt lat="43.91956" lon="5.42925">
        <ele>393.32</ele>
        <time>2015-06-15T13:39:27Z</time>
      </trkpt>
      <trkpt lat="43.91958" lon="5.42927">
        <ele>393.8</ele>
        <time>2015-06-15T13:39:28Z</time>
      </trkpt>
      <trkpt lat="43.91973" lon="5.42935">
        <ele>397.16</ele>
        <time>2015-06-15T13:39:38Z</time>
      </trkpt>
      <trkpt lat="43.91973" lon="5.42935">
        <ele>397.16</ele>
        <time>2015-06-15T13:39:39Z</time>
      </trkpt>
      <trkpt lat="43.91981" lon="5.42933">
        <ele>398.12</ele>
        <time>2015-06-15T13:39:44Z</time>
      </trkpt>
      <trkpt lat="43.91996" lon="5.42939">
        <ele>398.6</ele>
        <time>2015-06-15T13:39:49Z</time>
      </trkpt>
      <trkpt lat="43.92006" lon="5.42934">
        <ele>397.64</ele>
        <time>2015-06-15T13:39:53Z</time>
      </trkpt>
      <trkpt lat="43.9202" lon="5.42931">
        <ele>397.16</ele>
        <time>2015-06-15T13:39:58Z</time>
      </trkpt>
      <trkpt lat="43.9203" lon="5.42929">
        <ele>397.16</ele>
        <time>2015-06-15T13:40:02Z</time>
      </trkpt>
      <trkpt lat="43.9204" lon="5.42927">
        <ele>398.12</ele>
        <time>2015-06-15T13:40:06Z</time>
      </trkpt>
      <trkpt lat="43.92071" lon="5.42927">
        <ele>400.53</ele>
        <time>2015-06-15T13:40:17Z</time>
      </trkpt>
      <trkpt lat="43.92078" lon="5.42926">
        <ele>401.97</ele>
        <time>2015-06-15T13:40:20Z</time>
      </trkpt>
      <trkpt lat="43.92102" lon="5.42912">
        <ele>404.85</ele>
        <time>2015-06-15T13:40:30Z</time>
      </trkpt>
      <trkpt lat="43.92105" lon="5.42912">
        <ele>404.85</ele>
        <time>2015-06-15T13:40:31Z</time>
      </trkpt>
      <trkpt lat="43.92122" lon="5.42913">
        <ele>407.26</ele>
        <time>2015-06-15T13:40:39Z</time>
      </trkpt>
      <trkpt lat="43.92125" lon="5.4291">
        <ele>406.29</ele>
        <time>2015-06-15T13:40:41Z</time>
      </trkpt>
      <trkpt lat="43.92143" lon="5.429">
        <ele>402.93</ele>
        <time>2015-06-15T13:40:49Z</time>
      </trkpt>
      <trkpt lat="43.92153" lon="5.42903">
        <ele>401.01</ele>
        <time>2015-06-15T13:40:52Z</time>
      </trkpt>
      <trkpt lat="43.92168" lon="5.42912">
        <ele>400.05</ele>
        <time>2015-06-15T13:40:56Z</time>
      </trkpt>
      <trkpt lat="43.92187" lon="5.42903">
        <ele>398.12</ele>
        <time>2015-06-15T13:41:03Z</time>
      </trkpt>
      <trkpt lat="43.92197" lon="5.42903">
        <ele>396.2</ele>
        <time>2015-06-15T13:41:09Z</time>
      </trkpt>
      <trkpt lat="43.92202" lon="5.42907">
        <ele>391.39</ele>
        <time>2015-06-15T13:41:15Z</time>
      </trkpt>
      <trkpt lat="43.922" lon="5.42907">
        <ele>389.95</ele>
        <time>2015-06-15T13:41:17Z</time>
      </trkpt>
      <trkpt lat="43.92196" lon="5.42897">
        <ele>388.03</ele>
        <time>2015-06-15T13:41:22Z</time>
      </trkpt>
      <trkpt lat="43.92193" lon="5.42872">
        <ele>384.18</ele>
        <time>2015-06-15T13:41:33Z</time>
      </trkpt>
      <trkpt lat="43.92193" lon="5.42868">
        <ele>383.22</ele>
        <time>2015-06-15T13:41:35Z</time>
      </trkpt>
      <trkpt lat="43.922" lon="5.42861">
        <ele>381.3</ele>
        <time>2015-06-15T13:41:40Z</time>
      </trkpt>
      <trkpt lat="43.92226" lon="5.4284">
        <ele>378.9</ele>
        <time>2015-06-15T13:41:53Z</time>
      </trkpt>
      <trkpt lat="43.92252" lon="5.42833">
        <ele>376.49</ele>
        <time>2015-06-15T13:42:01Z</time>
      </trkpt>
      <trkpt lat="43.92258" lon="5.4283">
        <ele>375.53</ele>
        <time>2015-06-15T13:42:04Z</time>
      </trkpt>
      <trkpt lat="43.92257" lon="5.42825">
        <ele>373.13</ele>
        <time>2015-06-15T13:42:08Z</time>
      </trkpt>
      <trkpt lat="43.92254" lon="5.42788">
        <ele>369.28</ele>
        <time>2015-06-15T13:42:19Z</time>
      </trkpt>
      <trkpt lat="43.92259" lon="5.42781">
        <ele>368.32</ele>
        <time>2015-06-15T13:42:21Z</time>
      </trkpt>
      <trkpt lat="43.92285" lon="5.42765">
        <ele>364</ele>
        <time>2015-06-15T13:42:28Z</time>
      </trkpt>
      <trkpt lat="43.92292" lon="5.42772">
        <ele>363.04</ele>
        <time>2015-06-15T13:42:31Z</time>
      </trkpt>
      <trkpt lat="43.92303" lon="5.42778">
        <ele>362.07</ele>
        <time>2015-06-15T13:42:36Z</time>
      </trkpt>
      <trkpt lat="43.92323" lon="5.42781">
        <ele>361.11</ele>
        <time>2015-06-15T13:42:49Z</time>
      </trkpt>
      <trkpt lat="43.92324" lon="5.4278">
        <ele>361.11</ele>
        <time>2015-06-15T13:42:58Z</time>
      </trkpt>
      <trkpt lat="43.9233" lon="5.42759">
        <ele>358.23</ele>
        <time>2015-06-15T13:43:04Z</time>
      </trkpt>
      <trkpt lat="43.92344" lon="5.42705">
        <ele>349.58</ele>
        <time>2015-06-15T13:43:11Z</time>
      </trkpt>
      <trkpt lat="43.92368" lon="5.42611">
        <ele>339.96</ele>
        <time>2015-06-15T13:43:20Z</time>
      </trkpt>
      <trkpt lat="43.92374" lon="5.42576">
        <ele>337.08</ele>
        <time>2015-06-15T13:43:23Z</time>
      </trkpt>
      <trkpt lat="43.92375" lon="5.42566">
        <ele>336.6</ele>
        <time>2015-06-15T13:43:24Z</time>
      </trkpt>
      <trkpt lat="43.92378" lon="5.42556">
        <ele>335.64</ele>
        <time>2015-06-15T13:43:25Z</time>
      </trkpt>
      <trkpt lat="43.92382" lon="5.42548">
        <ele>335.16</ele>
        <time>2015-06-15T13:43:26Z</time>
      </trkpt>
      <trkpt lat="43.92387" lon="5.4254">
        <ele>334.68</ele>
        <time>2015-06-15T13:43:27Z</time>
      </trkpt>
      <trkpt lat="43.9239" lon="5.42531">
        <ele>333.71</ele>
        <time>2015-06-15T13:43:28Z</time>
      </trkpt>
      <trkpt lat="43.92393" lon="5.42522">
        <ele>333.23</ele>
        <time>2015-06-15T13:43:29Z</time>
      </trkpt>
      <trkpt lat="43.92405" lon="5.42494">
        <ele>331.79</ele>
        <time>2015-06-15T13:43:32Z</time>
      </trkpt>
      <trkpt lat="43.92446" lon="5.42435">
        <ele>328.91</ele>
        <time>2015-06-15T13:43:39Z</time>
      </trkpt>
      <trkpt lat="43.92508" lon="5.42379">
        <ele>322.18</ele>
        <time>2015-06-15T13:43:48Z</time>
      </trkpt>
      <trkpt lat="43.92521" lon="5.4236">
        <ele>320.74</ele>
        <time>2015-06-15T13:43:50Z</time>
      </trkpt>
      <trkpt lat="43.92525" lon="5.4235">
        <ele>320.26</ele>
        <time>2015-06-15T13:43:51Z</time>
      </trkpt>
      <trkpt lat="43.92532" lon="5.42335">
        <ele>319.78</ele>
        <time>2015-06-15T13:43:53Z</time>
      </trkpt>
      <trkpt lat="43.92534" lon="5.42331">
        <ele>319.78</ele>
        <time>2015-06-15T13:43:54Z</time>
      </trkpt>
      <trkpt lat="43.92559" lon="5.42305">
        <ele>321.7</ele>
        <time>2015-06-15T13:44:06Z</time>
      </trkpt>
      <trkpt lat="43.92562" lon="5.42303">
        <ele>322.66</ele>
        <time>2015-06-15T13:44:20Z</time>
      </trkpt>
      <trkpt lat="43.92563" lon="5.423">
        <ele>322.66</ele>
        <time>2015-06-15T13:44:30Z</time>
      </trkpt>
      <trkpt lat="43.92562" lon="5.42299">
        <ele>322.66</ele>
        <time>2015-06-15T13:44:31Z</time>
      </trkpt>
      <trkpt lat="43.9256" lon="5.42298">
        <ele>322.66</ele>
        <time>2015-06-15T13:44:32Z</time>
      </trkpt>
      <trkpt lat="43.92558" lon="5.42297">
        <ele>322.66</ele>
        <time>2015-06-15T13:44:33Z</time>
      </trkpt>
      <trkpt lat="43.92557" lon="5.42295">
        <ele>322.66</ele>
        <time>2015-06-15T13:44:34Z</time>
      </trkpt>
      <trkpt lat="43.92554" lon="5.42292">
        <ele>322.66</ele>
        <time>2015-06-15T13:44:35Z</time>
      </trkpt>
      <trkpt lat="43.92551" lon="5.42289">
        <ele>322.18</ele>
        <time>2015-06-15T13:44:36Z</time>
      </trkpt>
      <trkpt lat="43.92515" lon="5.42241">
        <ele>319.3</ele>
        <time>2015-06-15T13:44:47Z</time>
      </trkpt>
      <trkpt lat="43.92499" lon="5.42214">
        <ele>319.3</ele>
        <time>2015-06-15T13:44:51Z</time>
      </trkpt>
      <trkpt lat="43.92496" lon="5.42207">
        <ele>319.3</ele>
        <time>2015-06-15T13:44:52Z</time>
      </trkpt>
      <trkpt lat="43.92494" lon="5.42199">
        <ele>319.78</ele>
        <time>2015-06-15T13:44:53Z</time>
      </trkpt>
      <trkpt lat="43.92475" lon="5.42129">
        <ele>318.81</ele>
        <time>2015-06-15T13:45:04Z</time>
      </trkpt>
      <trkpt lat="43.92466" lon="5.42092">
        <ele>318.33</ele>
        <time>2015-06-15T13:45:10Z</time>
      </trkpt>
      <trkpt lat="43.92461" lon="5.42074">
        <ele>317.85</ele>
        <time>2015-06-15T13:45:13Z</time>
      </trkpt>
      <trkpt lat="43.92443" lon="5.41996">
        <ele>316.41</ele>
        <time>2015-06-15T13:45:25Z</time>
      </trkpt>
      <trkpt lat="43.92442" lon="5.41988">
        <ele>316.41</ele>
        <time>2015-06-15T13:45:26Z</time>
      </trkpt>
      <trkpt lat="43.92441" lon="5.41981">
        <ele>316.41</ele>
        <time>2015-06-15T13:45:27Z</time>
      </trkpt>
      <trkpt lat="43.92439" lon="5.41974">
        <ele>316.41</ele>
        <time>2015-06-15T13:45:28Z</time>
      </trkpt>
      <trkpt lat="43.92437" lon="5.41966">
        <ele>315.93</ele>
        <time>2015-06-15T13:45:29Z</time>
      </trkpt>
      <trkpt lat="43.92433" lon="5.41952">
        <ele>315.45</ele>
        <time>2015-06-15T13:45:31Z</time>
      </trkpt>
      <trkpt lat="43.9243" lon="5.41938">
        <ele>314.97</ele>
        <time>2015-06-15T13:45:33Z</time>
      </trkpt>
      <trkpt lat="43.92428" lon="5.41931">
        <ele>314.49</ele>
        <time>2015-06-15T13:45:34Z</time>
      </trkpt>
      <trkpt lat="43.92424" lon="5.41918">
        <ele>314.49</ele>
        <time>2015-06-15T13:45:36Z</time>
      </trkpt>
      <trkpt lat="43.92422" lon="5.41911">
        <ele>314.49</ele>
        <time>2015-06-15T13:45:37Z</time>
      </trkpt>
      <trkpt lat="43.92389" lon="5.41814">
        <ele>311.6</ele>
        <time>2015-06-15T13:45:52Z</time>
      </trkpt>
      <trkpt lat="43.92351" lon="5.41695">
        <ele>307.76</ele>
        <time>2015-06-15T13:46:10Z</time>
      </trkpt>
      <trkpt lat="43.92339" lon="5.41641">
        <ele>304.88</ele>
        <time>2015-06-15T13:46:18Z</time>
      </trkpt>
      <trkpt lat="43.92338" lon="5.41636">
        <ele>304.88</ele>
        <time>2015-06-15T13:46:19Z</time>
      </trkpt>
      <trkpt lat="43.92338" lon="5.41633">
        <ele>304.88</ele>
        <time>2015-06-15T13:46:20Z</time>
      </trkpt>
      <trkpt lat="43.92337" lon="5.4163">
        <ele>304.39</ele>
        <time>2015-06-15T13:46:21Z</time>
      </trkpt>
      <trkpt lat="43.92336" lon="5.41626">
        <ele>304.39</ele>
        <time>2015-06-15T13:46:22Z</time>
      </trkpt>
      <trkpt lat="43.92322" lon="5.41555">
        <ele>301.51</ele>
        <time>2015-06-15T13:46:33Z</time>
      </trkpt>
      <trkpt lat="43.92305" lon="5.41445">
        <ele>297.18</ele>
        <time>2015-06-15T13:46:46Z</time>
      </trkpt>
      <trkpt lat="43.92298" lon="5.414">
        <ele>295.26</ele>
        <time>2015-06-15T13:46:51Z</time>
      </trkpt>
      <trkpt lat="43.92297" lon="5.41352">
        <ele>293.82</ele>
        <time>2015-06-15T13:46:56Z</time>
      </trkpt>
      <trkpt lat="43.92296" lon="5.41343">
        <ele>293.82</ele>
        <time>2015-06-15T13:46:57Z</time>
      </trkpt>
      <trkpt lat="43.92278" lon="5.41235">
        <ele>290.94</ele>
        <time>2015-06-15T13:47:10Z</time>
      </trkpt>
      <trkpt lat="43.92278" lon="5.4122">
        <ele>289.97</ele>
        <time>2015-06-15T13:47:12Z</time>
      </trkpt>
      <trkpt lat="43.92279" lon="5.41213">
        <ele>289.97</ele>
        <time>2015-06-15T13:47:13Z</time>
      </trkpt>
      <trkpt lat="43.92282" lon="5.41207">
        <ele>289.97</ele>
        <time>2015-06-15T13:47:14Z</time>
      </trkpt>
      <trkpt lat="43.92284" lon="5.41201">
        <ele>289.97</ele>
        <time>2015-06-15T13:47:15Z</time>
      </trkpt>
      <trkpt lat="43.92288" lon="5.41196">
        <ele>289.97</ele>
        <time>2015-06-15T13:47:16Z</time>
      </trkpt>
      <trkpt lat="43.92292" lon="5.41191">
        <ele>289.97</ele>
        <time>2015-06-15T13:47:17Z</time>
      </trkpt>
      <trkpt lat="43.92312" lon="5.41165">
        <ele>289.97</ele>
        <time>2015-06-15T13:47:22Z</time>
      </trkpt>
      <trkpt lat="43.92355" lon="5.41088">
        <ele>289.97</ele>
        <time>2015-06-15T13:47:35Z</time>
      </trkpt>
      <trkpt lat="43.92357" lon="5.41082">
        <ele>289.49</ele>
        <time>2015-06-15T13:47:36Z</time>
      </trkpt>
      <trkpt lat="43.92386" lon="5.40979">
        <ele>288.53</ele>
        <time>2015-06-15T13:47:52Z</time>
      </trkpt>
      <trkpt lat="43.92406" lon="5.40908">
        <ele>287.57</ele>
        <time>2015-06-15T13:48:03Z</time>
      </trkpt>
      <trkpt lat="43.9241" lon="5.40903">
        <ele>287.57</ele>
        <time>2015-06-15T13:48:04Z</time>
      </trkpt>
      <trkpt lat="43.92413" lon="5.40898">
        <ele>287.57</ele>
        <time>2015-06-15T13:48:05Z</time>
      </trkpt>
      <trkpt lat="43.92417" lon="5.40895">
        <ele>287.09</ele>
        <time>2015-06-15T13:48:06Z</time>
      </trkpt>
      <trkpt lat="43.9242" lon="5.40891">
        <ele>287.09</ele>
        <time>2015-06-15T13:48:07Z</time>
      </trkpt>
      <trkpt lat="43.92453" lon="5.40885">
        <ele>286.13</ele>
        <time>2015-06-15T13:48:16Z</time>
      </trkpt>
      <trkpt lat="43.9249" lon="5.40878">
        <ele>287.57</ele>
        <time>2015-06-15T13:48:25Z</time>
      </trkpt>
      <trkpt lat="43.92509" lon="5.40866">
        <ele>289.01</ele>
        <time>2015-06-15T13:48:30Z</time>
      </trkpt>
      <trkpt lat="43.92512" lon="5.40863">
        <ele>289.01</ele>
        <time>2015-06-15T13:48:31Z</time>
      </trkpt>
      <trkpt lat="43.9255" lon="5.40826">
        <ele>292.86</ele>
        <time>2015-06-15T13:48:43Z</time>
      </trkpt>
      <trkpt lat="43.92552" lon="5.40827">
        <ele>292.86</ele>
        <time>2015-06-15T13:48:44Z</time>
      </trkpt>
      <trkpt lat="43.92555" lon="5.40828">
        <ele>292.86</ele>
        <time>2015-06-15T13:48:45Z</time>
      </trkpt>
      <trkpt lat="43.92556" lon="5.40832">
        <ele>293.34</ele>
        <time>2015-06-15T13:48:46Z</time>
      </trkpt>
      <trkpt lat="43.92558" lon="5.40836">
        <ele>293.34</ele>
        <time>2015-06-15T13:48:47Z</time>
      </trkpt>
      <trkpt lat="43.92559" lon="5.4084">
        <ele>293.34</ele>
        <time>2015-06-15T13:48:48Z</time>
      </trkpt>
      <trkpt lat="43.926" lon="5.40913">
        <ele>296.22</ele>
        <time>2015-06-15T13:49:04Z</time>
      </trkpt>
      <trkpt lat="43.9263" lon="5.4096">
        <ele>297.67</ele>
        <time>2015-06-15T13:49:14Z</time>
      </trkpt>
      <trkpt lat="43.92634" lon="5.40963">
        <ele>297.67</ele>
        <time>2015-06-15T13:49:15Z</time>
      </trkpt>
      <trkpt lat="43.92637" lon="5.40967">
        <ele>297.67</ele>
        <time>2015-06-15T13:49:16Z</time>
      </trkpt>
      <trkpt lat="43.92685" lon="5.41036">
        <ele>299.11</ele>
        <time>2015-06-15T13:49:31Z</time>
      </trkpt>
      <trkpt lat="43.92719" lon="5.41074">
        <ele>300.55</ele>
        <time>2015-06-15T13:49:40Z</time>
      </trkpt>
      <trkpt lat="43.92723" lon="5.41078">
        <ele>300.55</ele>
        <time>2015-06-15T13:49:41Z</time>
      </trkpt>
      <trkpt lat="43.92727" lon="5.41082">
        <ele>301.03</ele>
        <time>2015-06-15T13:49:42Z</time>
      </trkpt>
      <trkpt lat="43.9278" lon="5.41132">
        <ele>303.43</ele>
        <time>2015-06-15T13:49:55Z</time>
      </trkpt>
      <trkpt lat="43.92784" lon="5.41135">
        <ele>303.43</ele>
        <time>2015-06-15T13:49:56Z</time>
      </trkpt>
      <trkpt lat="43.92787" lon="5.41137">
        <ele>303.91</ele>
        <time>2015-06-15T13:49:57Z</time>
      </trkpt>
      <trkpt lat="43.9279" lon="5.41138">
        <ele>303.91</ele>
        <time>2015-06-15T13:49:58Z</time>
      </trkpt>
      <trkpt lat="43.92792" lon="5.41136">
        <ele>304.39</ele>
        <time>2015-06-15T13:49:59Z</time>
      </trkpt>
      <trkpt lat="43.92794" lon="5.41134">
        <ele>304.39</ele>
        <time>2015-06-15T13:50:00Z</time>
      </trkpt>
      <trkpt lat="43.92795" lon="5.41133">
        <ele>304.39</ele>
        <time>2015-06-15T13:50:01Z</time>
      </trkpt>
      <trkpt lat="43.92796" lon="5.41133">
        <ele>304.88</ele>
        <time>2015-06-15T13:50:02Z</time>
      </trkpt>
      <trkpt lat="43.92798" lon="5.41133">
        <ele>304.88</ele>
        <time>2015-06-15T13:50:03Z</time>
      </trkpt>
      <trkpt lat="43.92825" lon="5.41144">
        <ele>304.39</ele>
        <time>2015-06-15T13:50:12Z</time>
      </trkpt>
      <trkpt lat="43.92823" lon="5.41143">
        <ele>304.39</ele>
        <time>2015-06-15T13:50:22Z</time>
      </trkpt>
      <trkpt lat="43.92823" lon="5.41142">
        <ele>304.88</ele>
        <time>2015-06-15T13:50:28Z</time>
      </trkpt>
      <trkpt lat="43.92823" lon="5.41142">
        <ele>304.39</ele>
        <time>2015-06-15T13:50:40Z</time>
      </trkpt>
      <trkpt lat="43.92824" lon="5.41143">
        <ele>304.39</ele>
        <time>2015-06-15T13:51:13Z</time>
      </trkpt>
      <trkpt lat="43.92823" lon="5.41144">
        <ele>303.91</ele>
        <time>2015-06-15T13:51:44Z</time>
      </trkpt>
      <trkpt lat="43.92823" lon="5.41143">
        <ele>303.91</ele>
        <time>2015-06-15T13:51:59Z</time>
      </trkpt>
      <trkpt lat="43.92823" lon="5.41144">
        <ele>303.43</ele>
        <time>2015-06-15T13:52:32Z</time>
      </trkpt>
      <trkpt lat="43.92822" lon="5.41144">
        <ele>303.91</ele>
        <time>2015-06-15T13:53:09Z</time>
      </trkpt>
      <trkpt lat="43.92822" lon="5.41143">
        <ele>303.91</ele>
        <time>2015-06-15T13:53:36Z</time>
      </trkpt>
      <trkpt lat="43.92822" lon="5.41143">
        <ele>303.43</ele>
        <time>2015-06-15T13:54:06Z</time>
      </trkpt>
      <trkpt lat="43.92821" lon="5.41143">
        <ele>302.95</ele>
        <time>2015-06-15T13:54:33Z</time>
      </trkpt>
      <trkpt lat="43.92821" lon="5.41144">
        <ele>301.99</ele>
        <time>2015-06-15T13:55:04Z</time>
      </trkpt>
      <trkpt lat="43.92821" lon="5.41144">
        <ele>301.99</ele>
        <time>2015-06-15T13:55:36Z</time>
      </trkpt>
      <trkpt lat="43.92821" lon="5.41143">
        <ele>302.47</ele>
        <time>2015-06-15T13:55:55Z</time>
      </trkpt>
      <trkpt lat="43.92822" lon="5.41143">
        <ele>302.47</ele>
        <time>2015-06-15T13:56:26Z</time>
      </trkpt>
      <trkpt lat="43.92821" lon="5.41143">
        <ele>302.47</ele>
        <time>2015-06-15T13:56:43Z</time>
      </trkpt>
      <trkpt lat="43.92822" lon="5.41142">
        <ele>302.95</ele>
        <time>2015-06-15T13:56:59Z</time>
      </trkpt>
      <trkpt lat="43.92822" lon="5.41142">
        <ele>302.95</ele>
        <time>2015-06-15T13:57:31Z</time>
      </trkpt>
      <trkpt lat="43.92822" lon="5.41142">
        <ele>302.95</ele>
        <time>2015-06-15T13:58:02Z</time>
      </trkpt>
      <trkpt lat="43.92822" lon="5.41142">
        <ele>302.95</ele>
        <time>2015-06-15T13:58:29Z</time>
      </trkpt>
      <trkpt lat="43.92823" lon="5.41142">
        <ele>303.43</ele>
        <time>2015-06-15T13:59:03Z</time>
      </trkpt>
      <trkpt lat="43.92823" lon="5.41142">
        <ele>302.95</ele>
        <time>2015-06-15T13:59:33Z</time>
      </trkpt>
      <trkpt lat="43.92822" lon="5.41142">
        <ele>303.43</ele>
        <time>2015-06-15T14:00:04Z</time>
      </trkpt>
      <trkpt lat="43.92823" lon="5.41143">
        <ele>303.43</ele>
        <time>2015-06-15T14:00:21Z</time>
      </trkpt>
      <trkpt lat="43.92822" lon="5.41144">
        <ele>303.43</ele>
        <time>2015-06-15T14:00:50Z</time>
      </trkpt>
      <trkpt lat="43.92822" lon="5.41144">
        <ele>303.91</ele>
        <time>2015-06-15T14:01:19Z</time>
      </trkpt>
      <trkpt lat="43.92822" lon="5.41144">
        <ele>303.91</ele>
        <time>2015-06-15T14:01:45Z</time>
      </trkpt>
      <trkpt lat="43.92821" lon="5.41143">
        <ele>303.43</ele>
        <time>2015-06-15T14:02:16Z</time>
      </trkpt>
      <trkpt lat="43.92821" lon="5.41144">
        <ele>302.95</ele>
        <time>2015-06-15T14:02:48Z</time>
      </trkpt>
      <trkpt lat="43.92821" lon="5.41142">
        <ele>303.91</ele>
        <time>2015-06-15T14:03:13Z</time>
      </trkpt>
      <trkpt lat="43.92821" lon="5.41141">
        <ele>304.88</ele>
        <time>2015-06-15T14:03:39Z</time>
      </trkpt>
      <trkpt lat="43.92821" lon="5.41142">
        <ele>304.88</ele>
        <time>2015-06-15T14:04:08Z</time>
      </trkpt>
      <trkpt lat="43.92821" lon="5.4114">
        <ele>304.88</ele>
        <time>2015-06-15T14:04:39Z</time>
      </trkpt>
      <trkpt lat="43.92821" lon="5.4114">
        <ele>305.36</ele>
        <time>2015-06-15T14:05:12Z</time>
      </trkpt>
      <trkpt lat="43.92821" lon="5.41139">
        <ele>306.32</ele>
        <time>2015-06-15T14:05:42Z</time>
      </trkpt>
      <trkpt lat="43.92821" lon="5.4114">
        <ele>306.8</ele>
        <time>2015-06-15T14:06:06Z</time>
      </trkpt>
      <trkpt lat="43.92821" lon="5.4114">
        <ele>306.8</ele>
        <time>2015-06-15T14:06:35Z</time>
      </trkpt>
      <trkpt lat="43.92821" lon="5.4114">
        <ele>307.28</ele>
        <time>2015-06-15T14:07:04Z</time>
      </trkpt>
      <trkpt lat="43.92822" lon="5.41141">
        <ele>307.28</ele>
        <time>2015-06-15T14:07:33Z</time>
      </trkpt>
      <trkpt lat="43.92822" lon="5.41141">
        <ele>307.28</ele>
        <time>2015-06-15T14:08:03Z</time>
      </trkpt>
      <trkpt lat="43.92822" lon="5.41141">
        <ele>307.76</ele>
        <time>2015-06-15T14:08:37Z</time>
      </trkpt>
      <trkpt lat="43.92822" lon="5.41142">
        <ele>306.8</ele>
        <time>2015-06-15T14:09:12Z</time>
      </trkpt>
      <trkpt lat="43.92822" lon="5.4114">
        <ele>307.28</ele>
        <time>2015-06-15T14:09:43Z</time>
      </trkpt>
      <trkpt lat="43.92821" lon="5.41141">
        <ele>307.76</ele>
        <time>2015-06-15T14:10:15Z</time>
      </trkpt>
      <trkpt lat="43.92822" lon="5.41141">
        <ele>307.28</ele>
        <time>2015-06-15T14:10:39Z</time>
      </trkpt>
      <trkpt lat="43.92822" lon="5.41141">
        <ele>306.8</ele>
        <time>2015-06-15T14:11:11Z</time>
      </trkpt>
      <trkpt lat="43.92822" lon="5.41141">
        <ele>307.28</ele>
        <time>2015-06-15T14:11:42Z</time>
      </trkpt>
      <trkpt lat="43.92823" lon="5.41141">
        <ele>307.28</ele>
        <time>2015-06-15T14:12:13Z</time>
      </trkpt>
      <trkpt lat="43.92823" lon="5.41141">
        <ele>307.76</ele>
        <time>2015-06-15T14:12:50Z</time>
      </trkpt>
      <trkpt lat="43.92823" lon="5.4114">
        <ele>308.24</ele>
        <time>2015-06-15T14:13:19Z</time>
      </trkpt>
      <trkpt lat="43.92822" lon="5.4114">
        <ele>308.24</ele>
        <time>2015-06-15T14:13:40Z</time>
      </trkpt>
      <trkpt lat="43.92822" lon="5.4114">
        <ele>307.76</ele>
        <time>2015-06-15T14:14:08Z</time>
      </trkpt>
      <trkpt lat="43.92823" lon="5.4114">
        <ele>308.72</ele>
        <time>2015-06-15T14:14:38Z</time>
      </trkpt>
      <trkpt lat="43.92823" lon="5.4114">
        <ele>308.24</ele>
        <time>2015-06-15T14:15:12Z</time>
      </trkpt>
      <trkpt lat="43.92822" lon="5.4114">
        <ele>307.76</ele>
        <time>2015-06-15T14:15:47Z</time>
      </trkpt>
      <trkpt lat="43.92823" lon="5.41141">
        <ele>307.28</ele>
        <time>2015-06-15T14:16:22Z</time>
      </trkpt>
      <trkpt lat="43.92823" lon="5.41141">
        <ele>306.32</ele>
        <time>2015-06-15T14:16:47Z</time>
      </trkpt>
      <trkpt lat="43.92823" lon="5.4114">
        <ele>306.32</ele>
        <time>2015-06-15T14:17:16Z</time>
      </trkpt>
      <trkpt lat="43.92822" lon="5.4114">
        <ele>306.8</ele>
        <time>2015-06-15T14:17:47Z</time>
      </trkpt>
      <trkpt lat="43.92823" lon="5.4114">
        <ele>307.76</ele>
        <time>2015-06-15T14:18:22Z</time>
      </trkpt>
      <trkpt lat="43.92823" lon="5.41141">
        <ele>307.76</ele>
        <time>2015-06-15T14:18:40Z</time>
      </trkpt>
      <trkpt lat="43.92824" lon="5.41141">
        <ele>307.28</ele>
        <time>2015-06-15T14:18:46Z</time>
      </trkpt>
      <trkpt lat="43.92825" lon="5.41142">
        <ele>307.28</ele>
        <time>2015-06-15T14:18:47Z</time>
      </trkpt>
      <trkpt lat="43.9285" lon="5.41159">
        <ele>306.32</ele>
        <time>2015-06-15T14:18:56Z</time>
      </trkpt>
      <trkpt lat="43.92854" lon="5.41162">
        <ele>306.32</ele>
        <time>2015-06-15T14:18:57Z</time>
      </trkpt>
      <trkpt lat="43.92864" lon="5.41169">
        <ele>306.32</ele>
        <time>2015-06-15T14:18:59Z</time>
      </trkpt>
      <trkpt lat="43.9287" lon="5.41172">
        <ele>306.8</ele>
        <time>2015-06-15T14:19:00Z</time>
      </trkpt>
      <trkpt lat="43.92876" lon="5.41172">
        <ele>306.8</ele>
        <time>2015-06-15T14:19:01Z</time>
      </trkpt>
      <trkpt lat="43.92882" lon="5.41172">
        <ele>306.8</ele>
        <time>2015-06-15T14:19:02Z</time>
      </trkpt>
      <trkpt lat="43.92887" lon="5.41175">
        <ele>306.8</ele>
        <time>2015-06-15T14:19:03Z</time>
      </trkpt>
      <trkpt lat="43.92893" lon="5.41179">
        <ele>307.28</ele>
        <time>2015-06-15T14:19:04Z</time>
      </trkpt>
      <trkpt lat="43.929" lon="5.41183">
        <ele>307.28</ele>
        <time>2015-06-15T14:19:05Z</time>
      </trkpt>
      <trkpt lat="43.92908" lon="5.41185">
        <ele>307.28</ele>
        <time>2015-06-15T14:19:06Z</time>
      </trkpt>
      <trkpt lat="43.92917" lon="5.41187">
        <ele>306.8</ele>
        <time>2015-06-15T14:19:07Z</time>
      </trkpt>
      <trkpt lat="43.92949" lon="5.41185">
        <ele>305.36</ele>
        <time>2015-06-15T14:19:11Z</time>
      </trkpt>
      <trkpt lat="43.92956" lon="5.41182">
        <ele>304.88</ele>
        <time>2015-06-15T14:19:12Z</time>
      </trkpt>
      <trkpt lat="43.92969" lon="5.41176">
        <ele>304.39</ele>
        <time>2015-06-15T14:19:14Z</time>
      </trkpt>
      <trkpt lat="43.92975" lon="5.41174">
        <ele>304.39</ele>
        <time>2015-06-15T14:19:15Z</time>
      </trkpt>
      <trkpt lat="43.92981" lon="5.41171">
        <ele>303.91</ele>
        <time>2015-06-15T14:19:16Z</time>
      </trkpt>
      <trkpt lat="43.92985" lon="5.41166">
        <ele>303.43</ele>
        <time>2015-06-15T14:19:17Z</time>
      </trkpt>
      <trkpt lat="43.92988" lon="5.4116">
        <ele>303.43</ele>
        <time>2015-06-15T14:19:18Z</time>
      </trkpt>
      <trkpt lat="43.92989" lon="5.41153">
        <ele>303.43</ele>
        <time>2015-06-15T14:19:19Z</time>
      </trkpt>
      <trkpt lat="43.9299" lon="5.41146">
        <ele>303.43</ele>
        <time>2015-06-15T14:19:20Z</time>
      </trkpt>
      <trkpt lat="43.92991" lon="5.41137">
        <ele>301.99</ele>
        <time>2015-06-15T14:19:27Z</time>
      </trkpt>
      <trkpt lat="43.92989" lon="5.41137">
        <ele>302.47</ele>
        <time>2015-06-15T14:19:49Z</time>
      </trkpt>
      <trkpt lat="43.92988" lon="5.41136">
        <ele>302.47</ele>
        <time>2015-06-15T14:20:06Z</time>
      </trkpt>
      <trkpt lat="43.92989" lon="5.41135">
        <ele>301.51</ele>
        <time>2015-06-15T14:20:30Z</time>
      </trkpt>
      <trkpt lat="43.9299" lon="5.41134">
        <ele>300.55</ele>
        <time>2015-06-15T14:21:03Z</time>
      </trkpt>
    </trkseg>
  </trk>
</gpx>